Home > Products > Valid Products > TAF

000
FTUS44 KHGX 230128 AAA
TAFUTS
TAF AMD
KUTS 230128Z 2301/2324 09005KT 4SM -TSRA BR SCT008 OVC015CB
      TEMPO 2301/2303 VRB15G30KT 1SM +TSRA SCT004 BKN008 OVC012CB
     FM230400 14007KT 5SM -TSRA BR SCT007 OVC015CB
      TEMPO 2305/2307 VRB15G30KT 1SM +TSRA BR BKN007 OVC012CB
     FM230800 21007KT P6SM BKN025 OVC050
     FM231200 24008KT P6SM SCT050 BKN100
     FM231500 24010KT P6SM SKC=



000
FTUS44 KHGX 230128 AAA
TAFUTS
TAF AMD
KUTS 230128Z 2301/2324 09005KT 4SM -TSRA BR SCT008 OVC015CB
      TEMPO 2301/2303 VRB15G30KT 1SM +TSRA SCT004 BKN008 OVC012CB
     FM230400 14007KT 5SM -TSRA BR SCT007 OVC015CB
      TEMPO 2305/2307 VRB15G30KT 1SM +TSRA BR BKN007 OVC012CB
     FM230800 21007KT P6SM BKN025 OVC050
     FM231200 24008KT P6SM SCT050 BKN100
     FM231500 24010KT P6SM SKC=



000
FTUS44 KHGX 230127 AAA
TAFHOU
TAF AMD
KHOU 230127Z 2301/2324 11007KT P6SM -TSRA SCT020CB OVC050
     FM230400 13010KT 5SM -TSRA BR SCT007 OVC015CB
      TEMPO 2305/2307 VRB15G30KT 1SM +TSRA BR BKN007 OVC015CB
     FM230800 20010KT P6SM BKN025 OVC050
     FM231200 24008KT P6SM SCT050 BKN100
     FM231500 24010KT P6SM SKC=



000
FTUS44 KHGX 230127 AAA
TAFHOU
TAF AMD
KHOU 230127Z 2301/2324 11007KT P6SM -TSRA SCT020CB OVC050
     FM230400 13010KT 5SM -TSRA BR SCT007 OVC015CB
      TEMPO 2305/2307 VRB15G30KT 1SM +TSRA BR BKN007 OVC015CB
     FM230800 20010KT P6SM BKN025 OVC050
     FM231200 24008KT P6SM SCT050 BKN100
     FM231500 24010KT P6SM SKC=



000
FTUS44 KHGX 222334
TAFCLL
TAF
KCLL 222334Z 2300/2324 10008KT 6SM -RA BR VCTS SCT008 OVC015CB
     FM230300 14007KT 5SM -TSRA BR SCT007 OVC015CB
      TEMPO 2304/2306 VRB15G30KT 1SM +TSRA BR BKN007 OVC012CB
     FM230700 21007KT P6SM BKN025 OVC050
     FM231200 23010KT P6SM SCT050 BKN100
     FM231500 24012KT P6SM SKC=



000
FTUS44 KHGX 222334
TAFGLS
TAF
KGLS 222334Z 2300/2324 12010KT P6SM VCTS FEW015 BKN025CB OVC100
      TEMPO 2300/2301 4SM -TSRA SCT005 OVC020CB
     FM230500 13015KT 6SM -TSRA BR SCT007 OVC015CB
      TEMPO 2306/2308 VRB20G35KT 1SM +TSRA BR OVC007CB
     FM230900 18010KT P6SM BKN025 OVC050
     FM231200 22010KT P6SM SCT050 BKN100
     FM231500 23011KT P6SM SKC=



000
FTUS44 KHGX 222334
TAFUTS
TAF
KUTS 222334Z 2300/2324 09005KT 4SM -RA BR VCTS SCT008 OVC015CB
      TEMPO 2300/2301 VRB15G30KT 1SM +TSRA BKN007 OVC012CB
     FM230400 14007KT 5SM -TSRA BR SCT007 OVC015CB
      TEMPO 2305/2307 VRB15G30KT 1SM +TSRA BR BKN007 OVC012CB
     FM230800 21007KT P6SM BKN025 OVC050
     FM231200 24008KT P6SM SCT050 BKN100
     FM231500 24010KT P6SM SKC=



000
FTUS44 KHGX 222334
TAFCXO
TAF
KCXO 222334Z 2300/2324 12008KT 6SM -RA BR VCTS FEW008 OVC015CB
      TEMPO 2300/2301 VRB15G25KT 2SM TSRA BR BKN007 OVC012CB
     FM230400 13010KT 5SM -TSRA BR SCT007 OVC015CB
      TEMPO 2305/2307 VRB15G30KT 1SM +TSRA BR BKN007 OVC015CB
     FM230800 20007KT P6SM BKN025 OVC050
     FM231200 22008KT P6SM SCT050 BKN100
     FM231500 23010KT P6SM SKC=



000
FTUS44 KHGX 222334
TAFLBX
TAF
KLBX 222334Z 2300/2324 15010KT 6SM BR VCTS BKN015CB BKN050
     FM230400 16010KT 5SM -TSRA BR SCT007 OVC015CB
      TEMPO 2305/2307 VRB15G30KT 1SM +TSRA BR BKN007 OVC015CB
     FM230800 19011KT P6SM BKN025 OVC050
     FM231200 22008KT P6SM SCT050 BKN100
     FM231500 23010KT P6SM SKC=



000
FTUS44 KHGX 222334
TAFIAH
TAF
KIAH 222334Z 2300/2406 11010KT 6SM BR VCTS SCT008 OVC015CB
      TEMPO 2300/2301 VRB15G25KT 2SM TSRA BR BKN007 OVC012CB
     FM230400 13010KT 5SM -TSRA BR SCT007 OVC015CB
      TEMPO 2305/2307 VRB15G30KT 1SM +TSRA BR BKN007 OVC015CB
     FM230800 20010KT P6SM BKN025 OVC050
     FM231200 24008KT P6SM SCT050 BKN100
     FM231500 24010KT P6SM SKC=



000
FTUS44 KHGX 222334
TAFHOU
TAF
KHOU 222334Z 2300/2324 10010KT 4SM -RA BR VCTS FEW008 BKN015CB
      OVC080
      TEMPO 2300/2301 VRB15G25KT 2SM TSRA BR OVC012CB
     FM230400 13010KT 5SM -TSRA BR SCT007 OVC015CB
      TEMPO 2305/2307 VRB15G30KT 1SM +TSRA BR BKN007 OVC015CB
     FM230800 20010KT P6SM BKN025 OVC050
     FM231200 24008KT P6SM SCT050 BKN100
     FM231500 24010KT P6SM SKC=



000
FTUS44 KHGX 222334
TAFSGR
TAF
KSGR 222334Z 2300/2324 12010KT 6SM BR VCTS SCT015CB BKN050
      TEMPO 2300/2301 4SM -TSRA BR BKN015CB
     FM230400 13010KT 5SM -TSRA BR SCT007 OVC015CB
      TEMPO 2305/2307 VRB15G30KT 1SM +TSRA BR BKN007 OVC015CB
     FM230800 20010KT P6SM BKN025 OVC050
     FM231200 22008KT P6SM SCT050 BKN100
     FM231500 23010KT P6SM SKC=



000
FTUS44 KHGX 222334
TAFIAH
TAF
KIAH 222334Z 2300/2406 11010KT 6SM BR VCTS SCT008 OVC015CB
      TEMPO 2300/2301 VRB15G25KT 2SM TSRA BR BKN007 OVC012CB
     FM230400 13010KT 5SM -TSRA BR SCT007 OVC015CB
      TEMPO 2305/2307 VRB15G30KT 1SM +TSRA BR BKN007 OVC015CB
     FM230800 20010KT P6SM BKN025 OVC050
     FM231200 24008KT P6SM SCT050 BKN100
     FM231500 24010KT P6SM SKC=



000
FTUS44 KHGX 222334
TAFGLS
TAF
KGLS 222334Z 2300/2324 12010KT P6SM VCTS FEW015 BKN025CB OVC100
      TEMPO 2300/2301 4SM -TSRA SCT005 OVC020CB
     FM230500 13015KT 6SM -TSRA BR SCT007 OVC015CB
      TEMPO 2306/2308 VRB20G35KT 1SM +TSRA BR OVC007CB
     FM230900 18010KT P6SM BKN025 OVC050
     FM231200 22010KT P6SM SCT050 BKN100
     FM231500 23011KT P6SM SKC=



000
FTUS44 KHGX 222334
TAFHOU
TAF
KHOU 222334Z 2300/2324 10010KT 4SM -RA BR VCTS FEW008 BKN015CB
      OVC080
      TEMPO 2300/2301 VRB15G25KT 2SM TSRA BR OVC012CB
     FM230400 13010KT 5SM -TSRA BR SCT007 OVC015CB
      TEMPO 2305/2307 VRB15G30KT 1SM +TSRA BR BKN007 OVC015CB
     FM230800 20010KT P6SM BKN025 OVC050
     FM231200 24008KT P6SM SCT050 BKN100
     FM231500 24010KT P6SM SKC=



000
FTUS44 KHGX 222334
TAFSGR
TAF
KSGR 222334Z 2300/2324 12010KT 6SM BR VCTS SCT015CB BKN050
      TEMPO 2300/2301 4SM -TSRA BR BKN015CB
     FM230400 13010KT 5SM -TSRA BR SCT007 OVC015CB
      TEMPO 2305/2307 VRB15G30KT 1SM +TSRA BR BKN007 OVC015CB
     FM230800 20010KT P6SM BKN025 OVC050
     FM231200 22008KT P6SM SCT050 BKN100
     FM231500 23010KT P6SM SKC=



000
FTUS44 KHGX 222334
TAFCLL
TAF
KCLL 222334Z 2300/2324 10008KT 6SM -RA BR VCTS SCT008 OVC015CB
     FM230300 14007KT 5SM -TSRA BR SCT007 OVC015CB
      TEMPO 2304/2306 VRB15G30KT 1SM +TSRA BR BKN007 OVC012CB
     FM230700 21007KT P6SM BKN025 OVC050
     FM231200 23010KT P6SM SCT050 BKN100
     FM231500 24012KT P6SM SKC=



000
FTUS44 KHGX 222334
TAFCXO
TAF
KCXO 222334Z 2300/2324 12008KT 6SM -RA BR VCTS FEW008 OVC015CB
      TEMPO 2300/2301 VRB15G25KT 2SM TSRA BR BKN007 OVC012CB
     FM230400 13010KT 5SM -TSRA BR SCT007 OVC015CB
      TEMPO 2305/2307 VRB15G30KT 1SM +TSRA BR BKN007 OVC015CB
     FM230800 20007KT P6SM BKN025 OVC050
     FM231200 22008KT P6SM SCT050 BKN100
     FM231500 23010KT P6SM SKC=



000
FTUS44 KHGX 222334
TAFUTS
TAF
KUTS 222334Z 2300/2324 09005KT 4SM -RA BR VCTS SCT008 OVC015CB
      TEMPO 2300/2301 VRB15G30KT 1SM +TSRA BKN007 OVC012CB
     FM230400 14007KT 5SM -TSRA BR SCT007 OVC015CB
      TEMPO 2305/2307 VRB15G30KT 1SM +TSRA BR BKN007 OVC012CB
     FM230800 21007KT P6SM BKN025 OVC050
     FM231200 24008KT P6SM SCT050 BKN100
     FM231500 24010KT P6SM SKC=



000
FTUS44 KHGX 222334
TAFLBX
TAF
KLBX 222334Z 2300/2324 15010KT 6SM BR VCTS BKN015CB BKN050
     FM230400 16010KT 5SM -TSRA BR SCT007 OVC015CB
      TEMPO 2305/2307 VRB15G30KT 1SM +TSRA BR BKN007 OVC015CB
     FM230800 19011KT P6SM BKN025 OVC050
     FM231200 22008KT P6SM SCT050 BKN100
     FM231500 23010KT P6SM SKC=



000
FTUS44 KHGX 222218 AAC
TAFGLS
TAF AMD
KGLS 222218Z 2222/2318 12012KT P6SM VCTS FEW015 SCT020 BKN026CB
      TEMPO 2222/2302 3SM -TSRA SCT005 OVC023CB
     FM230200 13015KT 6SM -TSRA BR SCT007 OVC015CB
      TEMPO 2303/2307 VRB15G25KT 3SM TSRA BR OVC007CB
     FM230800 18010KT P6SM BKN025 OVC050
     FM231200 22010KT P6SM SCT050 BKN100
     FM231500 23011KT P6SM SKC=



000
FTUS44 KHGX 222218 AAC
TAFGLS
TAF AMD
KGLS 222218Z 2222/2318 12012KT P6SM VCTS FEW015 SCT020 BKN026CB
      TEMPO 2222/2302 3SM -TSRA SCT005 OVC023CB
     FM230200 13015KT 6SM -TSRA BR SCT007 OVC015CB
      TEMPO 2303/2307 VRB15G25KT 3SM TSRA BR OVC007CB
     FM230800 18010KT P6SM BKN025 OVC050
     FM231200 22010KT P6SM SCT050 BKN100
     FM231500 23011KT P6SM SKC=



000
FTUS44 KHGX 222157 AAC
TAFHOU
TAF AMD
KHOU 222157Z 2222/2318 11010KT 6SM BR VCTS BKN006 BKN040 OVC060CB
      TEMPO 2222/2302 VRB15G25KT 2SM TSRA BR OVC005CB
     FM230200 13010KT 5SM -SHRA BR SCT007 OVC015
      TEMPO 2302/2306 VRB15G25KT 3SM TSRA BR OVC007CB
     FM230800 20010KT P6SM BKN025 OVC050
     FM231200 24008KT P6SM SCT050 BKN100
     FM231500 24010KT P6SM SKC=



000
FTUS44 KHGX 222157 AAC
TAFHOU
TAF AMD
KHOU 222157Z 2222/2318 11010KT 6SM BR VCTS BKN006 BKN040 OVC060CB
      TEMPO 2222/2302 VRB15G25KT 2SM TSRA BR OVC005CB
     FM230200 13010KT 5SM -SHRA BR SCT007 OVC015
      TEMPO 2302/2306 VRB15G25KT 3SM TSRA BR OVC007CB
     FM230800 20010KT P6SM BKN025 OVC050
     FM231200 24008KT P6SM SCT050 BKN100
     FM231500 24010KT P6SM SKC=



000
FTUS44 KHGX 222157 AAC
TAFHOU
TAF AMD
KHOU 222157Z 2222/2318 11010KT 6SM BR VCTS BKN006 BKN040 OVC060CB
      TEMPO 2222/2302 VRB15G25KT 2SM TSRA BR OVC005CB
     FM230200 13010KT 5SM -SHRA BR SCT007 OVC015
      TEMPO 2302/2306 VRB15G25KT 3SM TSRA BR OVC007CB
     FM230800 20010KT P6SM BKN025 OVC050
     FM231200 24008KT P6SM SCT050 BKN100
     FM231500 24010KT P6SM SKC=



000
FTUS44 KHGX 222149 AAB
TAFSGR
TAF AMD
KSGR 222149Z 2222/2318 10009KT P6SM VCTS FEW008 OVC028CB
      TEMPO 2222/2302 3SM -TSRA BR OVC006CB
     FM230200 13010KT 5SM -TSRA BR SCT007 OVC015CB
      TEMPO 2302/2306 VRB15G25KT 3SM TSRA BR OVC007CB
     FM230800 20010KT P6SM BKN025 OVC050
     FM231200 22008KT P6SM SCT050 BKN100
     FM231500 23010KT P6SM SKC=



000
FTUS44 KHGX 222149 AAB
TAFSGR
TAF AMD
KSGR 222149Z 2222/2318 10009KT P6SM VCTS FEW008 OVC028CB
      TEMPO 2222/2302 3SM -TSRA BR OVC006CB
     FM230200 13010KT 5SM -TSRA BR SCT007 OVC015CB
      TEMPO 2302/2306 VRB15G25KT 3SM TSRA BR OVC007CB
     FM230800 20010KT P6SM BKN025 OVC050
     FM231200 22008KT P6SM SCT050 BKN100
     FM231500 23010KT P6SM SKC=



000
FTUS44 KHGX 222148 AAA
TAFLBX
TAF AMD
KLBX 222148Z 2222/2318 17013G20KT P6SM VCTS SCT016 BKN050CB OVC090
      TEMPO 2222/2302 VRB15G25KT 3SM TSRA BR OVC015CB
     FM230200 13011KT 5SM -TSRA BR SCT007 OVC015CB
      TEMPO 2303/2307 VRB15G25KT 3SM TSRA BR OVC007CB
     FM230800 19011KT P6SM BKN025 OVC050
     FM231200 22008KT P6SM SCT050 BKN100
     FM231500 23010KT P6SM SKC=



000
FTUS44 KHGX 222148 AAA
TAFLBX
TAF AMD
KLBX 222148Z 2222/2318 17013G20KT P6SM VCTS SCT016 BKN050CB OVC090
      TEMPO 2222/2302 VRB15G25KT 3SM TSRA BR OVC015CB
     FM230200 13011KT 5SM -TSRA BR SCT007 OVC015CB
      TEMPO 2303/2307 VRB15G25KT 3SM TSRA BR OVC007CB
     FM230800 19011KT P6SM BKN025 OVC050
     FM231200 22008KT P6SM SCT050 BKN100
     FM231500 23010KT P6SM SKC=



000
FTUS44 KHGX 222146 AAB
TAFGLS
TAF AMD
KGLS 222146Z 2222/2318 12012KT P6SM VCTS FEW015 SCT020 BKN026CB
      TEMPO 2222/2302 3SM -TSRA BKN005 OVC023CB
     FM230200 13015KT 6SM -TSRA BR SCT007 OVC015CB
      TEMPO 2303/2307 VRB15G25KT 3SM TSRA BR OVC007CB
     FM230800 18010KT P6SM BKN025 OVC050
     FM231200 22010KT P6SM SCT050 BKN100
     FM231500 23011KT P6SM SKC=



000
FTUS44 KHGX 222146 AAB
TAFGLS
TAF AMD
KGLS 222146Z 2222/2318 12012KT P6SM VCTS FEW015 SCT020 BKN026CB
      TEMPO 2222/2302 3SM -TSRA BKN005 OVC023CB
     FM230200 13015KT 6SM -TSRA BR SCT007 OVC015CB
      TEMPO 2303/2307 VRB15G25KT 3SM TSRA BR OVC007CB
     FM230800 18010KT P6SM BKN025 OVC050
     FM231200 22010KT P6SM SCT050 BKN100
     FM231500 23011KT P6SM SKC=



000
FTUS44 KHGX 222102 AAB
TAFHOU
TAF AMD
KHOU 222102Z 2221/2318 11010KT 6SM BR VCTS OVC006CB
      TEMPO 2221/2301 VRB15G25KT 3SM TSRA BR OVC005CB
     FM230200 13010KT 5SM -SHRA BR SCT007 OVC015
      TEMPO 2302/2306 VRB15G25KT 3SM TSRA BR OVC007CB
     FM230800 20010KT P6SM BKN025 OVC050
     FM231200 24008KT P6SM SCT050 BKN100
     FM231500 24010KT P6SM SKC=



000
FTUS44 KHGX 222102 AAB
TAFHOU
TAF AMD
KHOU 222102Z 2221/2318 11010KT 6SM BR VCTS OVC006CB
      TEMPO 2221/2301 VRB15G25KT 3SM TSRA BR OVC005CB
     FM230200 13010KT 5SM -SHRA BR SCT007 OVC015
      TEMPO 2302/2306 VRB15G25KT 3SM TSRA BR OVC007CB
     FM230800 20010KT P6SM BKN025 OVC050
     FM231200 24008KT P6SM SCT050 BKN100
     FM231500 24010KT P6SM SKC=



000
FTUS44 KHGX 222101 AAB
TAFIAH
TAF AMD
KIAH 222101Z 2221/2324 11010KT 5SM BR VCTS OVC012CB
      TEMPO 2221/2301 VRB15G25KT 2SM TSRA BR OVC010CB
     FM230200 13010KT 5SM -SHRA BR SCT007 OVC015
      TEMPO 2302/2306 VRB15G25KT 3SM TSRA BR OVC007CB
     FM230800 20010KT P6SM BKN025 OVC050
     FM231200 24008KT P6SM SCT050 BKN100
     FM231500 24010KT P6SM SKC=



000
FTUS44 KHGX 222101 AAB
TAFIAH
TAF AMD
KIAH 222101Z 2221/2324 11010KT 5SM BR VCTS OVC012CB
      TEMPO 2221/2301 VRB15G25KT 2SM TSRA BR OVC010CB
     FM230200 13010KT 5SM -SHRA BR SCT007 OVC015
      TEMPO 2302/2306 VRB15G25KT 3SM TSRA BR OVC007CB
     FM230800 20010KT P6SM BKN025 OVC050
     FM231200 24008KT P6SM SCT050 BKN100
     FM231500 24010KT P6SM SKC=



000
FTUS44 KHGX 222035 AAA
TAFIAH
TAF AMD
KIAH 222035Z 2221/2324 12010KT 5SM BR VCTS OVC007CB
      TEMPO 2221/2301 VRB15G25KT 2SM TSRA BR OVC015CB
     FM230200 13010KT 5SM -SHRA BR SCT007 OVC015
      TEMPO 2302/2306 VRB15G25KT 3SM TSRA BR OVC007CB
     FM230800 20010KT P6SM BKN025 OVC050
     FM231200 24008KT P6SM SCT050 BKN100
     FM231500 24010KT P6SM SKC=



000
FTUS44 KHGX 222027 AAB
TAFCLL
TAF AMD
KCLL 222027Z 2220/2318 13007KT 5SM -TSRA BR BKN008 BKN014 OVC020CB
      TEMPO 2220/2224 VRB15G25KT 1SM +TSRA BR OVC005CB
     FM230200 15007KT 5SM -SHRA BR SCT007 OVC015
      TEMPO 2302/2306 VRB15G25KT 3SM TSRA BR OVC007CB
     FM230800 21007KT P6SM BKN025 OVC050
     FM231200 23010KT P6SM SCT050 BKN100
     FM231500 24012KT P6SM SKC=



000
FTUS44 KHGX 222027 AAB
TAFCLL
TAF AMD
KCLL 222027Z 2220/2318 13007KT 5SM -TSRA BR BKN008 BKN014 OVC020CB
      TEMPO 2220/2224 VRB15G25KT 1SM +TSRA BR OVC005CB
     FM230200 15007KT 5SM -SHRA BR SCT007 OVC015
      TEMPO 2302/2306 VRB15G25KT 3SM TSRA BR OVC007CB
     FM230800 21007KT P6SM BKN025 OVC050
     FM231200 23010KT P6SM SCT050 BKN100
     FM231500 24012KT P6SM SKC=



000
FTUS44 KHGX 221940 AAA
TAFCLL
TAF AMD
KCLL 221940Z 2220/2318 13007KT P6SM -RA VCTS BKN009 OVC045CB
      TEMPO 2220/2224 VRB15G25KT 3SM +TSRA BR OVC005CB
     FM230200 15007KT 5SM -SHRA BR SCT007 OVC015
      TEMPO 2302/2306 VRB15G25KT 3SM TSRA BR OVC007CB
     FM230800 21007KT P6SM BKN025 OVC050
     FM231200 23010KT P6SM SCT050 BKN100
     FM231500 24012KT P6SM SKC=



000
FTUS44 KHGX 221940 AAA
TAFCLL
TAF AMD
KCLL 221940Z 2220/2318 13007KT P6SM -RA VCTS BKN009 OVC045CB
      TEMPO 2220/2224 VRB15G25KT 3SM +TSRA BR OVC005CB
     FM230200 15007KT 5SM -SHRA BR SCT007 OVC015
      TEMPO 2302/2306 VRB15G25KT 3SM TSRA BR OVC007CB
     FM230800 21007KT P6SM BKN025 OVC050
     FM231200 23010KT P6SM SCT050 BKN100
     FM231500 24012KT P6SM SKC=



000
FTUS44 KHGX 221920 AAA
TAFCXO
TAF AMD
KCXO 221920Z 2219/2318 11008KT P6SM VCTS OVC014CB
      TEMPO 2219/2223 3SM -TSRA BR OVC006CB
     FM230200 15007KT 5SM -SHRA BR SCT007 OVC015
      TEMPO 2302/2306 VRB15G25KT 3SM TSRA BR OVC007CB
     FM230800 20007KT P6SM BKN025 OVC050
     FM231200 22008KT P6SM SCT050 BKN100
     FM231500 23010KT P6SM SKC=



000
FTUS44 KHGX 221919 AAA
TAFSGR
TAF AMD
KSGR 221919Z 2219/2318 11010KT P6SM VCSH OVC009
      TEMPO 2219/2223 3SM -TSRA BR OVC006CB
     FM230200 13010KT 5SM -SHRA BR SCT007 OVC015
      TEMPO 2302/2306 VRB15G25KT 3SM TSRA BR OVC007CB
     FM230800 20010KT P6SM BKN025 OVC050
     FM231200 22008KT P6SM SCT050 BKN100
     FM231500 23010KT P6SM SKC=



000
FTUS44 KHGX 221919 AAA
TAFSGR
TAF AMD
KSGR 221919Z 2219/2318 11010KT P6SM VCSH OVC009
      TEMPO 2219/2223 3SM -TSRA BR OVC006CB
     FM230200 13010KT 5SM -SHRA BR SCT007 OVC015
      TEMPO 2302/2306 VRB15G25KT 3SM TSRA BR OVC007CB
     FM230800 20010KT P6SM BKN025 OVC050
     FM231200 22008KT P6SM SCT050 BKN100
     FM231500 23010KT P6SM SKC=



000
FTUS44 KHGX 221918 AAA
TAFHOU
TAF AMD
KHOU 221918Z 2219/2318 11012G18KT P6SM VCSH OVC006
      TEMPO 2220/2224 VRB15G25KT 3SM TSRA BR OVC005CB
     FM230200 13010KT 5SM -SHRA BR SCT007 OVC015
      TEMPO 2302/2306 VRB15G25KT 3SM TSRA BR OVC007CB
     FM230800 20010KT P6SM BKN025 OVC050
     FM231200 24008KT P6SM SCT050 BKN100
     FM231500 24010KT P6SM SKC=



000
FTUS44 KHGX 221918 AAA
TAFHOU
TAF AMD
KHOU 221918Z 2219/2318 11012G18KT P6SM VCSH OVC006
      TEMPO 2220/2224 VRB15G25KT 3SM TSRA BR OVC005CB
     FM230200 13010KT 5SM -SHRA BR SCT007 OVC015
      TEMPO 2302/2306 VRB15G25KT 3SM TSRA BR OVC007CB
     FM230800 20010KT P6SM BKN025 OVC050
     FM231200 24008KT P6SM SCT050 BKN100
     FM231500 24010KT P6SM SKC=



000
FTUS44 KHGX 221803 AAA
TAFGLS
TAF AMD
KGLS 221803Z 2218/2318 12014KT P6SM FEW005 SCT023 BKN080
      TEMPO 2218/2222 3SM -SHRA BKN005 BKN023
     FM230200 13015KT 5SM -SHRA BR SCT007 OVC015
      TEMPO 2302/2306 VRB15G25KT 3SM TSRA BR OVC007CB
     FM230800 18010KT P6SM BKN025 OVC050
     FM231200 22010KT P6SM SCT050 BKN100
     FM231500 23011KT P6SM SKC=



000
FTUS44 KHGX 221803 AAA
TAFGLS
TAF AMD
KGLS 221803Z 2218/2318 12014KT P6SM FEW005 SCT023 BKN080
      TEMPO 2218/2222 3SM -SHRA BKN005 BKN023
     FM230200 13015KT 5SM -SHRA BR SCT007 OVC015
      TEMPO 2302/2306 VRB15G25KT 3SM TSRA BR OVC007CB
     FM230800 18010KT P6SM BKN025 OVC050
     FM231200 22010KT P6SM SCT050 BKN100
     FM231500 23011KT P6SM SKC=



000
FTUS44 KHGX 221722
TAFUTS
TAF
KUTS 221722Z 2218/2318 13007KT P6SM VCTS SCT021 BKN050CB
      TEMPO 2219/2223 VRB15G25KT 3SM TSRA BR OVC015CB
     FM230200 15007KT 5SM -SHRA BR SCT007 OVC015
      TEMPO 2302/2306 VRB15G25KT 3SM TSRA BR OVC007CB
     FM230800 21007KT P6SM BKN025 OVC050
     FM231200 24008KT P6SM SCT050 BKN100
     FM231500 24010KT P6SM SKC=



000
FTUS44 KHGX 221722
TAFGLS
TAF
KGLS 221722Z 2218/2318 12012KT P6SM SCT008 BKN018
      TEMPO 2218/2222 6SM -SHRA OVC007
     FM230200 13015KT 5SM -SHRA BR SCT007 OVC015
      TEMPO 2302/2306 VRB15G25KT 3SM TSRA BR OVC007CB
     FM230800 18010KT P6SM BKN025 OVC050
     FM231200 22010KT P6SM SCT050 BKN100
     FM231500 23011KT P6SM SKC=



000
FTUS44 KHGX 221722
TAFHOU
TAF
KHOU 221722Z 2218/2318 12012G18KT P6SM VCSH SCT015 BKN150
      TEMPO 2220/2224 VRB15G25KT 3SM TSRA BR OVC015CB
     FM230200 13010KT 5SM -SHRA BR SCT007 OVC015
      TEMPO 2302/2306 VRB15G25KT 3SM TSRA BR OVC007CB
     FM230800 20010KT P6SM BKN025 OVC050
     FM231200 24008KT P6SM SCT050 BKN100
     FM231500 24010KT P6SM SKC=



000
FTUS44 KHGX 221722
TAFCLL
TAF
KCLL 221722Z 2218/2318 13007KT P6SM VCTS SCT015 BKN050CB
      TEMPO 2219/2223 VRB15G25KT 3SM TSRA BR OVC015CB
     FM230200 15007KT 5SM -SHRA BR SCT007 OVC015
      TEMPO 2302/2306 VRB15G25KT 3SM TSRA BR OVC007CB
     FM230800 21007KT P6SM BKN025 OVC050
     FM231200 23010KT P6SM SCT050 BKN100
     FM231500 24012KT P6SM SKC=



000
FTUS44 KHGX 221722
TAFCXO
TAF
KCXO 221722Z 2218/2318 14005KT P6SM VCTS SCT025 BKN050CB
      TEMPO 2220/2224 VRB15G25KT 3SM TSRA BR OVC015CB
     FM230200 15007KT 5SM -SHRA BR SCT007 OVC015
      TEMPO 2302/2306 VRB15G25KT 3SM TSRA BR OVC007CB
     FM230800 20007KT P6SM BKN025 OVC050
     FM231200 22008KT P6SM SCT050 BKN100
     FM231500 23010KT P6SM SKC=



000
FTUS44 KHGX 221722
TAFIAH
TAF
KIAH 221722Z 2218/2324 12012KT P6SM VCTS SCT015 BKN050CB
      TEMPO 2220/2224 VRB15G25KT 3SM TSRA BR OVC015CB
     FM230200 13010KT 5SM -SHRA BR SCT007 OVC015
      TEMPO 2302/2306 VRB15G25KT 3SM TSRA BR OVC007CB
     FM230800 20010KT P6SM BKN025 OVC050
     FM231200 24008KT P6SM SCT050 BKN100
     FM231500 24010KT P6SM SKC=



000
FTUS44 KHGX 221722
TAFIAH
TAF
KIAH 221722Z 2218/2324 12012KT P6SM VCTS SCT015 BKN050CB
      TEMPO 2220/2224 VRB15G25KT 3SM TSRA BR OVC015CB
     FM230200 13010KT 5SM -SHRA BR SCT007 OVC015
      TEMPO 2302/2306 VRB15G25KT 3SM TSRA BR OVC007CB
     FM230800 20010KT P6SM BKN025 OVC050
     FM231200 24008KT P6SM SCT050 BKN100
     FM231500 24010KT P6SM SKC=



000
FTUS44 KHGX 221722
TAFCXO
TAF
KCXO 221722Z 2218/2318 14005KT P6SM VCTS SCT025 BKN050CB
      TEMPO 2220/2224 VRB15G25KT 3SM TSRA BR OVC015CB
     FM230200 15007KT 5SM -SHRA BR SCT007 OVC015
      TEMPO 2302/2306 VRB15G25KT 3SM TSRA BR OVC007CB
     FM230800 20007KT P6SM BKN025 OVC050
     FM231200 22008KT P6SM SCT050 BKN100
     FM231500 23010KT P6SM SKC=



000
FTUS44 KHGX 221722
TAFCLL
TAF
KCLL 221722Z 2218/2318 13007KT P6SM VCTS SCT015 BKN050CB
      TEMPO 2219/2223 VRB15G25KT 3SM TSRA BR OVC015CB
     FM230200 15007KT 5SM -SHRA BR SCT007 OVC015
      TEMPO 2302/2306 VRB15G25KT 3SM TSRA BR OVC007CB
     FM230800 21007KT P6SM BKN025 OVC050
     FM231200 23010KT P6SM SCT050 BKN100
     FM231500 24012KT P6SM SKC=



000
FTUS44 KHGX 221722
TAFLBX
TAF
KLBX 221722Z 2218/2318 14011KT P6SM VCSH SCT015 BKN029 OVC110
      TEMPO 2220/2224 VRB15G25KT 3SM TSRA BR OVC015CB
     FM230200 13011KT 5SM -SHRA BR SCT007 OVC015
      TEMPO 2302/2306 VRB15G25KT 3SM TSRA BR OVC007CB
     FM230800 19011KT P6SM BKN025 OVC050
     FM231200 22008KT P6SM SCT050 BKN100
     FM231500 23010KT P6SM SKC=



000
FTUS44 KHGX 221722
TAFLBX
TAF
KLBX 221722Z 2218/2318 14011KT P6SM VCSH SCT015 BKN029 OVC110
      TEMPO 2220/2224 VRB15G25KT 3SM TSRA BR OVC015CB
     FM230200 13011KT 5SM -SHRA BR SCT007 OVC015
      TEMPO 2302/2306 VRB15G25KT 3SM TSRA BR OVC007CB
     FM230800 19011KT P6SM BKN025 OVC050
     FM231200 22008KT P6SM SCT050 BKN100
     FM231500 23010KT P6SM SKC=



000
FTUS44 KHGX 221722
TAFSGR
TAF
KSGR 221722Z 2218/2318 12011KT P6SM VCSH SCT015 BKN029 OVC110
      TEMPO 2220/2224 VRB15G25KT 3SM TSRA BR OVC015CB
     FM230200 13010KT 5SM -SHRA BR SCT007 OVC015
      TEMPO 2302/2306 VRB15G25KT 3SM TSRA BR OVC007CB
     FM230800 20010KT P6SM BKN025 OVC050
     FM231200 22008KT P6SM SCT050 BKN100
     FM231500 23010KT P6SM SKC=



000
FTUS44 KHGX 221722
TAFGLS
TAF
KGLS 221722Z 2218/2318 12012KT P6SM SCT008 BKN018
      TEMPO 2218/2222 6SM -SHRA OVC007
     FM230200 13015KT 5SM -SHRA BR SCT007 OVC015
      TEMPO 2302/2306 VRB15G25KT 3SM TSRA BR OVC007CB
     FM230800 18010KT P6SM BKN025 OVC050
     FM231200 22010KT P6SM SCT050 BKN100
     FM231500 23011KT P6SM SKC=



000
FTUS44 KHGX 221722
TAFHOU
TAF
KHOU 221722Z 2218/2318 12012G18KT P6SM VCSH SCT015 BKN150
      TEMPO 2220/2224 VRB15G25KT 3SM TSRA BR OVC015CB
     FM230200 13010KT 5SM -SHRA BR SCT007 OVC015
      TEMPO 2302/2306 VRB15G25KT 3SM TSRA BR OVC007CB
     FM230800 20010KT P6SM BKN025 OVC050
     FM231200 24008KT P6SM SCT050 BKN100
     FM231500 24010KT P6SM SKC=



000
FTUS44 KHGX 221722
TAFSGR
TAF
KSGR 221722Z 2218/2318 12011KT P6SM VCSH SCT015 BKN029 OVC110
      TEMPO 2220/2224 VRB15G25KT 3SM TSRA BR OVC015CB
     FM230200 13010KT 5SM -SHRA BR SCT007 OVC015
      TEMPO 2302/2306 VRB15G25KT 3SM TSRA BR OVC007CB
     FM230800 20010KT P6SM BKN025 OVC050
     FM231200 22008KT P6SM SCT050 BKN100
     FM231500 23010KT P6SM SKC=



000
FTUS44 KHGX 221722
TAFUTS
TAF
KUTS 221722Z 2218/2318 13007KT P6SM VCTS SCT021 BKN050CB
      TEMPO 2219/2223 VRB15G25KT 3SM TSRA BR OVC015CB
     FM230200 15007KT 5SM -SHRA BR SCT007 OVC015
      TEMPO 2302/2306 VRB15G25KT 3SM TSRA BR OVC007CB
     FM230800 21007KT P6SM BKN025 OVC050
     FM231200 24008KT P6SM SCT050 BKN100
     FM231500 24010KT P6SM SKC=



000
FTUS44 KHGX 221621 AAC
TAFCXO
TAF AMD
KCXO 221621Z 2216/2312 12011KT P6SM VCSH BKN025
      TEMPO 2216/2220 3SM TSRA BR BKN010CB
     FM222000 14010G18KT P6SM VCSH BKN015 OVC025
      TEMPO 2302/2306 VRB20G40KT 2SM +TSRA BR BKN009CB
     FM230700 14010KT P6SM BKN025 OVC050
     FM231000 24006KT P6SM BKN025=



000
FTUS44 KHGX 221621 AAC
TAFCXO
TAF AMD
KCXO 221621Z 2216/2312 12011KT P6SM VCSH BKN025
      TEMPO 2216/2220 3SM TSRA BR BKN010CB
     FM222000 14010G18KT P6SM VCSH BKN015 OVC025
      TEMPO 2302/2306 VRB20G40KT 2SM +TSRA BR BKN009CB
     FM230700 14010KT P6SM BKN025 OVC050
     FM231000 24006KT P6SM BKN025=



000
FTUS44 KHGX 221619 AAA
TAFUTS
TAF AMD
KUTS 221619Z 2216/2312 12010KT P6SM VCSH BKN025
      TEMPO 2216/2220 3SM TSRA BR BKN010CB
     FM222000 14010G18KT P6SM VCSH BKN015 OVC025
      TEMPO 2301/2305 VRB20G40KT 2SM +TSRA BR BKN009CB
     FM230600 14010KT P6SM BKN025 OVC050
     FM231000 24006KT P6SM BKN025=



000
FTUS44 KHGX 221619 AAA
TAFUTS
TAF AMD
KUTS 221619Z 2216/2312 12010KT P6SM VCSH BKN025
      TEMPO 2216/2220 3SM TSRA BR BKN010CB
     FM222000 14010G18KT P6SM VCSH BKN015 OVC025
      TEMPO 2301/2305 VRB20G40KT 2SM +TSRA BR BKN009CB
     FM230600 14010KT P6SM BKN025 OVC050
     FM231000 24006KT P6SM BKN025=



000
FTUS44 KHGX 221613 AAA
TAFSGR
TAF AMD
KSGR 221613Z 2216/2312 12010KT P6SM VCSH SCT008 BKN025
     FM222100 12010G18KT P6SM VCTS BKN025CB OVC040
      TEMPO 2303/2307 VRB20G40KT 3SM TSRA BR OVC015CB
     FM230900 12010KT P6SM BKN025 OVC050=



000
FTUS44 KHGX 221613 AAA
TAFSGR
TAF AMD
KSGR 221613Z 2216/2312 12010KT P6SM VCSH SCT008 BKN025
     FM222100 12010G18KT P6SM VCTS BKN025CB OVC040
      TEMPO 2303/2307 VRB20G40KT 3SM TSRA BR OVC015CB
     FM230900 12010KT P6SM BKN025 OVC050=



000
FTUS44 KHGX 221607 AAA
TAFGLS
TAF AMD
KGLS 221607Z 2216/2312 09012KT P6SM VCSH SCT025
      TEMPO 2216/2220 3SM TSRA BR BKN010CB
     FM230100 12010G18KT P6SM VCTS BKN025CB OVC040
      TEMPO 2301/2305 VRB15G25KT 3SM TSRA BR OVC015CB
     FM230900 12010KT P6SM BKN025 OVC050=



000
FTUS44 KHGX 221607 AAA
TAFGLS
TAF AMD
KGLS 221607Z 2216/2312 09012KT P6SM VCSH SCT025
      TEMPO 2216/2220 3SM TSRA BR BKN010CB
     FM230100 12010G18KT P6SM VCTS BKN025CB OVC040
      TEMPO 2301/2305 VRB15G25KT 3SM TSRA BR OVC015CB
     FM230900 12010KT P6SM BKN025 OVC050=



000
FTUS44 KHGX 221604 AAA
TAFLBX
TAF AMD
KLBX 221604Z 2216/2312 10006KT P6SM VCSH SCT025 BKN110
      TEMPO 2216/2220 VRB15G25KT 3SM TSRA BR BKN010 BKN025CB
     FM222100 12010G18KT P6SM VCTS BKN025CB OVC040
      TEMPO 2301/2305 VRB15G25KT 3SM TSRA BR OVC015CB
     FM230900 12010KT P6SM BKN025 OVC050=



000
FTUS44 KHGX 221604 AAA
TAFLBX
TAF AMD
KLBX 221604Z 2216/2312 10006KT P6SM VCSH SCT025 BKN110
      TEMPO 2216/2220 VRB15G25KT 3SM TSRA BR BKN010 BKN025CB
     FM222100 12010G18KT P6SM VCTS BKN025CB OVC040
      TEMPO 2301/2305 VRB15G25KT 3SM TSRA BR OVC015CB
     FM230900 12010KT P6SM BKN025 OVC050=



000
FTUS44 KHGX 221604 AAA
TAFLBX
TAF AMD
KLBX 221604Z 2216/2312 10006KT P6SM VCSH SCT025 BKN110
      TEMPO 2216/2220 VRB15G25KT 3SM TSRA BR BKN010 BKN025CB
     FM222100 12010G18KT P6SM VCTS BKN025CB OVC040
      TEMPO 2301/2305 VRB15G25KT 3SM TSRA BR OVC015CB
     FM230900 12010KT P6SM BKN025 OVC050=



000
FTUS44 KHGX 221604 AAA
TAFLBX
TAF AMD
KLBX 221604Z 2216/2312 10006KT P6SM VCSH SCT025 BKN110
      TEMPO 2216/2220 VRB15G25KT 3SM TSRA BR BKN010 BKN025CB
     FM222100 12010G18KT P6SM VCTS BKN025CB OVC040
      TEMPO 2301/2305 VRB15G25KT 3SM TSRA BR OVC015CB
     FM230900 12010KT P6SM BKN025 OVC050=



000
FTUS44 KHGX 221559 AAA
TAFCLL
TAF AMD
KCLL 221559Z 2216/2312 12011KT P6SM VCTS BKN015 BKN025CB OVC090
      TEMPO 2216/2220 VRB15G25KT 4SM TSRA BR BKN009CB
     FM230200 14012KT P6SM VCTS BKN025 OVC050CB
      TEMPO 2302/2306 VRB20G40KT 4SM +TSRA BR BKN009CB
     FM230900 24005KT P6SM BKN025=



000
FTUS44 KHGX 221500 AAA
TAFHOU
TAF AMD
KHOU 221500Z 2215/2312 11010KT P6SM VCSH SCT009 BKN025 BKN140
     FM222100 12010G18KT P6SM VCTS BKN025CB OVC040
      TEMPO 2222/2302 VRB15G25KT 3SM TSRA BR OVC015CB
     FM230800 12010KT P6SM BKN025 OVC050=



000
FTUS44 KHGX 221500 AAA
TAFHOU
TAF AMD
KHOU 221500Z 2215/2312 11010KT P6SM VCSH SCT009 BKN025 BKN140
     FM222100 12010G18KT P6SM VCTS BKN025CB OVC040
      TEMPO 2222/2302 VRB15G25KT 3SM TSRA BR OVC015CB
     FM230800 12010KT P6SM BKN025 OVC050=



000
FTUS44 KHGX 221500 CCA
TAFIAH
TAF COR
KIAH 221500Z 2215/2318 11009KT P6SM VCSH SCT011 BKN025 BKN140
     FM222000 12010G18KT P6SM VCTS BKN025CB OVC040
      TEMPO 2222/2302 VRB15G25KT 3SM TSRA BR OVC015CB
     FM230800 12010KT P6SM BKN025 OVC050
     FM231200 24008KT P6SM BKN050 OVC100
     FM231500 26006KT P6SM OVC050=



000
FTUS44 KHGX 221500 CCA
TAFIAH
TAF COR
KIAH 221500Z 2215/2318 11009KT P6SM VCSH SCT011 BKN025 BKN140
     FM222000 12010G18KT P6SM VCTS BKN025CB OVC040
      TEMPO 2222/2302 VRB15G25KT 3SM TSRA BR OVC015CB
     FM230800 12010KT P6SM BKN025 OVC050
     FM231200 24008KT P6SM BKN050 OVC100
     FM231500 26006KT P6SM OVC050=



000
FTUS44 KHGX 221459 AAA
TAFIAH
TAF AMD
KIAH 221459Z 2215/2318 11009KT P6SM VCSH SCT011 BKN140
     FM222000 12010G18KT P6SM VCTS BKN025CB OVC040
      TEMPO 2222/2302 VRB15G25KT 3SM TSRA BR OVC015CB
     FM230800 12010KT P6SM BKN025 OVC050
     FM231200 24008KT P6SM BKN050 OVC100
     FM231500 26006KT P6SM OVC050=



000
FTUS44 KHGX 221459 AAA
TAFIAH
TAF AMD
KIAH 221459Z 2215/2318 11009KT P6SM VCSH SCT011 BKN140
     FM222000 12010G18KT P6SM VCTS BKN025CB OVC040
      TEMPO 2222/2302 VRB15G25KT 3SM TSRA BR OVC015CB
     FM230800 12010KT P6SM BKN025 OVC050
     FM231200 24008KT P6SM BKN050 OVC100
     FM231500 26006KT P6SM OVC050=



000
FTUS44 KHGX 221401 AAB
TAFCXO
TAF AMD
KCXO 221401Z 2214/2312 12006KT P6SM FEW006 SCT030
     FM221500 12011KT P6SM VCSH OVC015
     FM221800 14010G18KT P6SM VCTS BKN015 OVC025CB
      TEMPO 2220/2224 VRB15G25KT 4SM TSRA BR BKN009CB
     FM230500 14010KT P6SM BKN025 OVC050
     FM231000 24006KT P6SM BKN025=



000
FTUS44 KHGX 221401 AAB
TAFCXO
TAF AMD
KCXO 221401Z 2214/2312 12006KT P6SM FEW006 SCT030
     FM221500 12011KT P6SM VCSH OVC015
     FM221800 14010G18KT P6SM VCTS BKN015 OVC025CB
      TEMPO 2220/2224 VRB15G25KT 4SM TSRA BR BKN009CB
     FM230500 14010KT P6SM BKN025 OVC050
     FM231000 24006KT P6SM BKN025=



000
FTUS44 KHGX 221307 AAA
TAFCXO
TAF AMD
KCXO 221307Z 2213/2312 11004KT 6SM BR OVC005
     FM221500 12011KT P6SM VCSH OVC015
     FM221800 14010G18KT P6SM VCTS BKN015 OVC025CB
      TEMPO 2220/2224 VRB15G25KT 4SM TSRA BR BKN009CB
     FM230500 14010KT P6SM BKN025 OVC050
     FM231000 24006KT P6SM BKN025=



000
FTUS44 KHGX 221307 AAA
TAFCXO
TAF AMD
KCXO 221307Z 2213/2312 11004KT 6SM BR OVC005
     FM221500 12011KT P6SM VCSH OVC015
     FM221800 14010G18KT P6SM VCTS BKN015 OVC025CB
      TEMPO 2220/2224 VRB15G25KT 4SM TSRA BR BKN009CB
     FM230500 14010KT P6SM BKN025 OVC050
     FM231000 24006KT P6SM BKN025=



000
FTUS44 KHGX 221141
TAFSGR
TAF
KSGR 221141Z 2212/2312 08004KT P6SM SKC
     FM221500 11009KT P6SM VCSH BKN025
     FM222100 12010G18KT P6SM VCTS BKN025CB OVC040
      TEMPO 2222/2302 VRB15G25KT 3SM TSRA BR OVC015CB
     FM230900 12010KT P6SM BKN025 OVC050=



000
FTUS44 KHGX 221141
TAFCXO
TAF
KCXO 221141Z 2212/2312 10004KT P6SM SCT009 OVC023
     FM221500 12011KT P6SM VCSH OVC015
     FM221800 14010G18KT P6SM VCTS BKN015 OVC025CB
      TEMPO 2220/2224 VRB15G25KT 4SM TSRA BR BKN009CB
     FM230500 14010KT P6SM BKN025 OVC050
     FM231000 24006KT P6SM BKN025=



000
FTUS44 KHGX 221141
TAFHOU
TAF
KHOU 221141Z 2212/2312 09007KT P6SM FEW025 SCT250
     FM221500 11009KT P6SM VCSH BKN025
     FM222100 12010G18KT P6SM VCTS BKN025CB OVC040
      TEMPO 2222/2302 VRB15G25KT 3SM TSRA BR OVC015CB
     FM230800 12010KT P6SM BKN025 OVC050=



000
FTUS44 KHGX 221141
TAFLBX
TAF
KLBX 221141Z 2212/2312 10006KT P6SM SKC
     FM221500 11009KT P6SM VCSH BKN025
     FM222100 12010G18KT P6SM VCTS BKN025CB OVC040
      TEMPO 2222/2302 VRB15G25KT 3SM TSRA BR OVC015CB
     FM230900 12010KT P6SM BKN025 OVC050=



000
FTUS44 KHGX 221141
TAFGLS
TAF
KGLS 221141Z 2212/2312 09011KT P6SM SCT035
     FM221400 11009KT P6SM VCSH BKN025
     FM222100 12010G18KT P6SM VCTS BKN025CB OVC040
      TEMPO 2222/2302 VRB15G25KT 3SM TSRA BR OVC015CB
     FM230900 12010KT P6SM BKN025 OVC050=



000
FTUS44 KHGX 221141
TAFIAH
TAF
KIAH 221141Z 2212/2318 09006KT P6SM SCT028 SCT100
     FM221500 11009KT P6SM VCSH BKN025
     FM222000 12010G18KT P6SM VCTS BKN025CB OVC040
      TEMPO 2222/2302 VRB15G25KT 3SM TSRA BR OVC015CB
     FM230800 12010KT P6SM BKN025 OVC050
     FM231200 24008KT P6SM BKN050 OVC100
     FM231500 26006KT P6SM OVC050=



000
FTUS44 KHGX 221141
TAFUTS
TAF
KUTS 221141Z 2212/2312 10004KT P6SM BKN012 OVC020
     FM221500 12011KT P6SM VCSH OVC015
     FM221800 14010G18KT P6SM VCTS BKN015 OVC025CB
      TEMPO 2220/2224 VRB15G25KT 4SM TSRA BR BKN009CB
     FM230500 14010KT P6SM BKN025 OVC050
     FM231000 24006KT P6SM BKN025=



000
FTUS44 KHGX 221141
TAFCLL
TAF
KCLL 221141Z 2212/2312 12013KT P6SM OVC008
     FM221500 12011KT P6SM VCSH OVC008
     FM221800 14012G22KT P6SM VCTS BKN015 OVC025CB
      TEMPO 2219/2223 VRB15G25KT 4SM TSRA BR BKN009CB
     FM230300 14012KT P6SM BKN025 OVC050
     FM230900 24005KT P6SM BKN025=



000
FTUS44 KHGX 221141
TAFCLL
TAF
KCLL 221141Z 2212/2312 12013KT P6SM OVC008
     FM221500 12011KT P6SM VCSH OVC008
     FM221800 14012G22KT P6SM VCTS BKN015 OVC025CB
      TEMPO 2219/2223 VRB15G25KT 4SM TSRA BR BKN009CB
     FM230300 14012KT P6SM BKN025 OVC050
     FM230900 24005KT P6SM BKN025=



000
FTUS44 KHGX 221141
TAFCXO
TAF
KCXO 221141Z 2212/2312 10004KT P6SM SCT009 OVC023
     FM221500 12011KT P6SM VCSH OVC015
     FM221800 14010G18KT P6SM VCTS BKN015 OVC025CB
      TEMPO 2220/2224 VRB15G25KT 4SM TSRA BR BKN009CB
     FM230500 14010KT P6SM BKN025 OVC050
     FM231000 24006KT P6SM BKN025=



000
FTUS44 KHGX 221141
TAFHOU
TAF
KHOU 221141Z 2212/2312 09007KT P6SM FEW025 SCT250
     FM221500 11009KT P6SM VCSH BKN025
     FM222100 12010G18KT P6SM VCTS BKN025CB OVC040
      TEMPO 2222/2302 VRB15G25KT 3SM TSRA BR OVC015CB
     FM230800 12010KT P6SM BKN025 OVC050=



000
FTUS44 KHGX 221141
TAFIAH
TAF
KIAH 221141Z 2212/2318 09006KT P6SM SCT028 SCT100
     FM221500 11009KT P6SM VCSH BKN025
     FM222000 12010G18KT P6SM VCTS BKN025CB OVC040
      TEMPO 2222/2302 VRB15G25KT 3SM TSRA BR OVC015CB
     FM230800 12010KT P6SM BKN025 OVC050
     FM231200 24008KT P6SM BKN050 OVC100
     FM231500 26006KT P6SM OVC050=



000
FTUS44 KHGX 221141
TAFUTS
TAF
KUTS 221141Z 2212/2312 10004KT P6SM BKN012 OVC020
     FM221500 12011KT P6SM VCSH OVC015
     FM221800 14010G18KT P6SM VCTS BKN015 OVC025CB
      TEMPO 2220/2224 VRB15G25KT 4SM TSRA BR BKN009CB
     FM230500 14010KT P6SM BKN025 OVC050
     FM231000 24006KT P6SM BKN025=



000
FTUS44 KHGX 221141
TAFLBX
TAF
KLBX 221141Z 2212/2312 10006KT P6SM SKC
     FM221500 11009KT P6SM VCSH BKN025
     FM222100 12010G18KT P6SM VCTS BKN025CB OVC040
      TEMPO 2222/2302 VRB15G25KT 3SM TSRA BR OVC015CB
     FM230900 12010KT P6SM BKN025 OVC050=



000
FTUS44 KHGX 221141
TAFSGR
TAF
KSGR 221141Z 2212/2312 08004KT P6SM SKC
     FM221500 11009KT P6SM VCSH BKN025
     FM222100 12010G18KT P6SM VCTS BKN025CB OVC040
      TEMPO 2222/2302 VRB15G25KT 3SM TSRA BR OVC015CB
     FM230900 12010KT P6SM BKN025 OVC050=



000
FTUS44 KHGX 221141
TAFGLS
TAF
KGLS 221141Z 2212/2312 09011KT P6SM SCT035
     FM221400 11009KT P6SM VCSH BKN025
     FM222100 12010G18KT P6SM VCTS BKN025CB OVC040
      TEMPO 2222/2302 VRB15G25KT 3SM TSRA BR OVC015CB
     FM230900 12010KT P6SM BKN025 OVC050=



000
FTUS44 KHGX 220858 AAA
TAFIAH
TAF AMD
KIAH 220858Z 2209/2312 10005KT P6SM SCT018 BKN025 BKN100
     FM221200 12010KT P6SM VCSH FEW008 OVC015
     FM222100 12010G18KT P6SM VCTS BKN025CB OVC040
      TEMPO 2222/2301 3SM TSRA OVC020CB
     FM230100 12010KT P6SM BKN025 OVC050
     FM230300 12012KT P6SM VCTS OVC020CB
      TEMPO 2304/2307 VRB20G30KT 2SM TSRA BR OVC015CB
     FM230800 24008KT P6SM BKN050 OVC100=



000
FTUS44 KHGX 220858 AAA
TAFHOU
TAF AMD
KHOU 220858Z 2209/2306 12010KT P6SM FEW090
      TEMPO 2210/2212 BKN020
     FM221200 12010KT P6SM VCSH OVC015
     FM222100 12010G18KT P6SM VCTS BKN025CB OVC040
      TEMPO 2222/2301 3SM TSRA OVC020CB
     FM230100 12010KT P6SM BKN025 OVC050
     FM230300 14012KT P6SM VCTS OVC020CB
      TEMPO 2303/2306 VRB20G30KT 2SM TSRA BR OVC015CB=



000
FTUS44 KHGX 220525
TAFUTS
TAF
KUTS 220525Z 2206/2306 VRB04KT P6SM OVC015
     FM221200 13008KT P6SM VCSH OVC015
     FM221800 14010G18KT P6SM VCTS BKN015 OVC025CB
      TEMPO 2219/2223 TSRA
     FM230000 14010KT P6SM BKN025 OVC050
     FM230300 12010KT P6SM VCTS OVC020CB
      TEMPO 2303/2306 VRB20G30KT 2SM TSRA BR OVC015CB=



000
FTUS44 KHGX 220525
TAFCXO
TAF
KCXO 220525Z 2206/2306 12009KT P6SM OVC018
     FM221200 13008KT P6SM VCSH OVC015
     FM221800 14010G18KT P6SM VCTS BKN015 OVC025CB
      TEMPO 2219/2223 TSRA
     FM230000 14010KT P6SM BKN025 OVC050
     FM230300 12010KT P6SM VCTS OVC020CB
      TEMPO 2303/2306 VRB20G30KT 2SM TSRA BR OVC015CB=



000
FTUS44 KHGX 220525
TAFIAH
TAF
KIAH 220525Z 2206/2312 12010KT P6SM OVC012
     FM221200 12010KT P6SM VCSH FEW008 OVC015
     FM222100 12010G18KT P6SM VCTS BKN025CB OVC040
      TEMPO 2222/2301 3SM TSRA OVC020CB
     FM230100 12010KT P6SM BKN025 OVC050
     FM230300 12012KT P6SM VCTS OVC020CB
      TEMPO 2304/2307 VRB20G30KT 2SM TSRA BR OVC015CB
     FM230800 24008KT P6SM BKN050 OVC100=



000
FTUS44 KHGX 220525
TAFCLL
TAF
KCLL 220525Z 2206/2306 12009KT P6SM SCT010 BKN016 OVC040
     FM221200 13012KT P6SM VCSH OVC012
     FM221800 14015G22KT P6SM VCTS BKN015 OVC025CB
      TEMPO 2219/2223 TSRA
     FM230000 14012KT P6SM BKN025 OVC050
     FM230300 12012KT P6SM VCTS OVC020CB
      TEMPO 2303/2306 VRB20G30KT 2SM TSRA BR OVC015CB=



000
FTUS44 KHGX 220525
TAFCLL
TAF
KCLL 220525Z 2206/2306 12009KT P6SM SCT010 BKN016 OVC040
     FM221200 13012KT P6SM VCSH OVC012
     FM221800 14015G22KT P6SM VCTS BKN015 OVC025CB
      TEMPO 2219/2223 TSRA
     FM230000 14012KT P6SM BKN025 OVC050
     FM230300 12012KT P6SM VCTS OVC020CB
      TEMPO 2303/2306 VRB20G30KT 2SM TSRA BR OVC015CB=



000
FTUS44 KHGX 220525
TAFUTS
TAF
KUTS 220525Z 2206/2306 VRB04KT P6SM OVC015
     FM221200 13008KT P6SM VCSH OVC015
     FM221800 14010G18KT P6SM VCTS BKN015 OVC025CB
      TEMPO 2219/2223 TSRA
     FM230000 14010KT P6SM BKN025 OVC050
     FM230300 12010KT P6SM VCTS OVC020CB
      TEMPO 2303/2306 VRB20G30KT 2SM TSRA BR OVC015CB=



000
FTUS44 KHGX 220525
TAFHOU
TAF
KHOU 220525Z 2206/2306 11009KT P6SM FEW008 BKN050
      TEMPO 2210/2212 BKN020
     FM221200 12010KT P6SM VCSH OVC015
     FM222100 12010G18KT P6SM VCTS BKN025CB OVC040
      TEMPO 2222/2301 3SM TSRA OVC020CB
     FM230100 12010KT P6SM BKN025 OVC050
     FM230300 14012KT P6SM VCTS OVC020CB
      TEMPO 2303/2306 VRB20G30KT 2SM TSRA BR OVC015CB=



000
FTUS44 KHGX 220525
TAFSGR
TAF
KSGR 220525Z 2206/2306 12004KT P6SM BKN025 OVC035
      TEMPO 2210/2212 BKN020
     FM221200 12010KT P6SM VCSH OVC015
     FM222100 12010G18KT P6SM VCTS BKN025CB OVC040
      TEMPO 2222/2301 3SM TSRA OVC020CB
     FM230100 12010KT P6SM BKN025 OVC050
     FM230300 15015KT P6SM VCTS OVC020CB
      TEMPO 2303/2306 VRB20G30KT 2SM TSRA BR OVC015CB=



000
FTUS44 KHGX 220525
TAFGLS
TAF
KGLS 220525Z 2206/2306 10012KT P6SM FEW100
      TEMPO 2210/2212 BKN020
     FM221200 10010KT P6SM VCSH OVC015
     FM222000 12017G25KT P6SM VCTS BKN015 OVC030CB
      TEMPO 2221/2224 3SM TSRA OVC020CB
     FM230100 12010KT P6SM BKN025 OVC050
     FM230300 13018KT P6SM VCTS OVC020CB
      TEMPO 2303/2306 VRB20G30KT 2SM TSRA BR OVC015CB=



000
FTUS44 KHGX 220525
TAFLBX
TAF
KLBX 220525Z 2206/2306 11005KT P6SM FEW035 BKN050
      TEMPO 2210/2212 BKN020
     FM221200 12010KT P6SM VCSH OVC015
     FM222000 14017G25KT P6SM VCTS BKN015 OVC030CB
      TEMPO 2221/2224 3SM TSRA OVC020CB
     FM230100 12010KT P6SM BKN025 OVC050
     FM230300 16015KT P6SM VCTS OVC020CB
      TEMPO 2303/2306 VRB20G30KT 2SM TSRA BR OVC015CB=



000
FTUS44 KHGX 220525
TAFCXO
TAF
KCXO 220525Z 2206/2306 12009KT P6SM OVC018
     FM221200 13008KT P6SM VCSH OVC015
     FM221800 14010G18KT P6SM VCTS BKN015 OVC025CB
      TEMPO 2219/2223 TSRA
     FM230000 14010KT P6SM BKN025 OVC050
     FM230300 12010KT P6SM VCTS OVC020CB
      TEMPO 2303/2306 VRB20G30KT 2SM TSRA BR OVC015CB=



000
FTUS44 KHGX 220525
TAFGLS
TAF
KGLS 220525Z 2206/2306 10012KT P6SM FEW100
      TEMPO 2210/2212 BKN020
     FM221200 10010KT P6SM VCSH OVC015
     FM222000 12017G25KT P6SM VCTS BKN015 OVC030CB
      TEMPO 2221/2224 3SM TSRA OVC020CB
     FM230100 12010KT P6SM BKN025 OVC050
     FM230300 13018KT P6SM VCTS OVC020CB
      TEMPO 2303/2306 VRB20G30KT 2SM TSRA BR OVC015CB=



000
FTUS44 KHGX 220525
TAFSGR
TAF
KSGR 220525Z 2206/2306 12004KT P6SM BKN025 OVC035
      TEMPO 2210/2212 BKN020
     FM221200 12010KT P6SM VCSH OVC015
     FM222100 12010G18KT P6SM VCTS BKN025CB OVC040
      TEMPO 2222/2301 3SM TSRA OVC020CB
     FM230100 12010KT P6SM BKN025 OVC050
     FM230300 15015KT P6SM VCTS OVC020CB
      TEMPO 2303/2306 VRB20G30KT 2SM TSRA BR OVC015CB=



000
FTUS44 KHGX 220525
TAFLBX
TAF
KLBX 220525Z 2206/2306 11005KT P6SM FEW035 BKN050
      TEMPO 2210/2212 BKN020
     FM221200 12010KT P6SM VCSH OVC015
     FM222000 14017G25KT P6SM VCTS BKN015 OVC030CB
      TEMPO 2221/2224 3SM TSRA OVC020CB
     FM230100 12010KT P6SM BKN025 OVC050
     FM230300 16015KT P6SM VCTS OVC020CB
      TEMPO 2303/2306 VRB20G30KT 2SM TSRA BR OVC015CB=



000
FTUS44 KHGX 220525
TAFHOU
TAF
KHOU 220525Z 2206/2306 11009KT P6SM FEW008 BKN050
      TEMPO 2210/2212 BKN020
     FM221200 12010KT P6SM VCSH OVC015
     FM222100 12010G18KT P6SM VCTS BKN025CB OVC040
      TEMPO 2222/2301 3SM TSRA OVC020CB
     FM230100 12010KT P6SM BKN025 OVC050
     FM230300 14012KT P6SM VCTS OVC020CB
      TEMPO 2303/2306 VRB20G30KT 2SM TSRA BR OVC015CB=



000
FTUS44 KHGX 220525
TAFIAH
TAF
KIAH 220525Z 2206/2312 12010KT P6SM OVC012
     FM221200 12010KT P6SM VCSH FEW008 OVC015
     FM222100 12010G18KT P6SM VCTS BKN025CB OVC040
      TEMPO 2222/2301 3SM TSRA OVC020CB
     FM230100 12010KT P6SM BKN025 OVC050
     FM230300 12012KT P6SM VCTS OVC020CB
      TEMPO 2304/2307 VRB20G30KT 2SM TSRA BR OVC015CB
     FM230800 24008KT P6SM BKN050 OVC100=



000
FTUS44 KHGX 220314 AAA
TAFHOU
TAF AMD
KHOU 220314Z 2203/2224 10009KT P6SM SCT015 BKN045
     FM220900 12010KT P6SM VCSH OVC015
     FM222100 12010G18KT P6SM VCTS BKN025CB OVC040
      TEMPO 2222/2224 3SM TSRA OVC020CB=



000
FTUS44 KHGX 220314 AAA
TAFIAH
TAF AMD
KIAH 220314Z 2203/2306 12011KT P6SM FEW009 BKN020 BKN050
     FM220900 12010KT P6SM VCSH OVC015
     FM222100 12010G18KT P6SM VCTS BKN025CB OVC040
      TEMPO 2222/2301 3SM TSRA OVC020CB
     FM230300 12012KT P6SM VCTS OVC020CB PROB30 2303/2306 TSRA=



000
FTUS44 KHGX 220314 AAA
TAFIAH
TAF AMD
KIAH 220314Z 2203/2306 12011KT P6SM FEW009 BKN020 BKN050
     FM220900 12010KT P6SM VCSH OVC015
     FM222100 12010G18KT P6SM VCTS BKN025CB OVC040
      TEMPO 2222/2301 3SM TSRA OVC020CB
     FM230300 12012KT P6SM VCTS OVC020CB PROB30 2303/2306 TSRA=



000
FTUS44 KHGX 212326
TAFGLS
TAF
KGLS 212326Z 2200/2224 10012KT P6SM BKN035
     FM220300 10012KT P6SM BKN015
     FM220900 11015KT P6SM VCSH OVC012
     FM222000 10015G22KT P6SM VCTS BKN015 OVC030CB
      TEMPO 2221/2224 3SM TSRA OVC020CB=



000
FTUS44 KHGX 212326
TAFLBX
TAF
KLBX 212326Z 2200/2224 12010KT P6SM SCT015 BKN035
     FM220300 13012KT P6SM BKN015
     FM220900 13015KT P6SM VCSH OVC012
     FM222000 14017G25KT P6SM VCTS BKN015 OVC030CB
      TEMPO 2221/2224 3SM TSRA OVC020CB=



000
FTUS44 KHGX 212326
TAFCLL
TAF
KCLL 212326Z 2200/2224 14011KT P6SM VCSH BKN020 OVC028
     FM220200 14012KT P6SM OVC012
     FM220900 13012KT P6SM VCSH OVC008
     FM221700 14015G22KT P6SM VCTS BKN015 OVC025CB
      TEMPO 2218/2222 TSRA=



000
FTUS44 KHGX 212326
TAFUTS
TAF
KUTS 212326Z 2200/2224 14005KT P6SM -SHRA OVC012
     FM220200 12008KT P6SM OVC015
     FM220900 13008KT P6SM VCSH OVC008
     FM221800 14010KT P6SM VCTS BKN015 OVC025CB
      TEMPO 2219/2223 TSRA=



000
FTUS44 KHGX 212326
TAFHOU
TAF
KHOU 212326Z 2200/2224 12010KT P6SM SCT015 OVC035
     FM220300 13013KT P6SM BKN015
     FM220900 12010KT P6SM VCSH OVC015
     FM222100 12010G18KT P6SM VCTS BKN025CB OVC040
      TEMPO 2222/2224 3SM TSRA OVC020CB=



000
FTUS44 KHGX 212326
TAFCXO
TAF
KCXO 212326Z 2200/2224 14005KT 4SM -RA BR BKN006 OVC035
     FM220200 12008KT P6SM BKN015 OVC025
     FM220900 13008KT P6SM VCSH OVC008
     FM221900 14010KT P6SM VCTS BKN015 OVC025CB
      TEMPO 2220/2224 TSRA=



000
FTUS44 KHGX 212326
TAFSGR
TAF
KSGR 212326Z 2200/2224 12010KT P6SM SCT015 OVC035
     FM220300 13013KT P6SM BKN015
     FM220900 12010KT P6SM VCSH OVC015
     FM222000 12010G18KT P6SM VCTS BKN025CB OVC040
      TEMPO 2222/2224 3SM TSRA OVC020CB=



000
FTUS44 KHGX 212326
TAFCLL
TAF
KCLL 212326Z 2200/2224 14011KT P6SM VCSH BKN020 OVC028
     FM220200 14012KT P6SM OVC012
     FM220900 13012KT P6SM VCSH OVC008
     FM221700 14015G22KT P6SM VCTS BKN015 OVC025CB
      TEMPO 2218/2222 TSRA=



000
FTUS44 KHGX 212326
TAFIAH
TAF
KIAH 212326Z 2200/2306 14012KT 6SM -RA BR BKN012 OVC018
     FM220300 11010KT P6SM OVC020
     FM220900 12010KT P6SM VCSH OVC015
     FM222100 12010G18KT P6SM VCTS BKN025CB OVC040
      TEMPO 2222/2301 3SM TSRA OVC020CB
     FM230300 12012KT P6SM VCTS OVC020CB PROB30 2303/2306 TSRA=



000
FTUS44 KHGX 212326
TAFCXO
TAF
KCXO 212326Z 2200/2224 14005KT 4SM -RA BR BKN006 OVC035
     FM220200 12008KT P6SM BKN015 OVC025
     FM220900 13008KT P6SM VCSH OVC008
     FM221900 14010KT P6SM VCTS BKN015 OVC025CB
      TEMPO 2220/2224 TSRA=



000
FTUS44 KHGX 212326
TAFLBX
TAF
KLBX 212326Z 2200/2224 12010KT P6SM SCT015 BKN035
     FM220300 13012KT P6SM BKN015
     FM220900 13015KT P6SM VCSH OVC012
     FM222000 14017G25KT P6SM VCTS BKN015 OVC030CB
      TEMPO 2221/2224 3SM TSRA OVC020CB=



000
FTUS44 KHGX 212326
TAFGLS
TAF
KGLS 212326Z 2200/2224 10012KT P6SM BKN035
     FM220300 10012KT P6SM BKN015
     FM220900 11015KT P6SM VCSH OVC012
     FM222000 10015G22KT P6SM VCTS BKN015 OVC030CB
      TEMPO 2221/2224 3SM TSRA OVC020CB=



000
FTUS44 KHGX 212326
TAFSGR
TAF
KSGR 212326Z 2200/2224 12010KT P6SM SCT015 OVC035
     FM220300 13013KT P6SM BKN015
     FM220900 12010KT P6SM VCSH OVC015
     FM222000 12010G18KT P6SM VCTS BKN025CB OVC040
      TEMPO 2222/2224 3SM TSRA OVC020CB=



000
FTUS44 KHGX 212326
TAFIAH
TAF
KIAH 212326Z 2200/2306 14012KT 6SM -RA BR BKN012 OVC018
     FM220300 11010KT P6SM OVC020
     FM220900 12010KT P6SM VCSH OVC015
     FM222100 12010G18KT P6SM VCTS BKN025CB OVC040
      TEMPO 2222/2301 3SM TSRA OVC020CB
     FM230300 12012KT P6SM VCTS OVC020CB PROB30 2303/2306 TSRA=



000
FTUS44 KHGX 212326
TAFHOU
TAF
KHOU 212326Z 2200/2224 12010KT P6SM SCT015 OVC035
     FM220300 13013KT P6SM BKN015
     FM220900 12010KT P6SM VCSH OVC015
     FM222100 12010G18KT P6SM VCTS BKN025CB OVC040
      TEMPO 2222/2224 3SM TSRA OVC020CB=



000
FTUS44 KHGX 212326
TAFUTS
TAF
KUTS 212326Z 2200/2224 14005KT P6SM -SHRA OVC012
     FM220200 12008KT P6SM OVC015
     FM220900 13008KT P6SM VCSH OVC008
     FM221800 14010KT P6SM VCTS BKN015 OVC025CB
      TEMPO 2219/2223 TSRA=



000
FTUS44 KHGX 212155 AAB
TAFCLL
TAF AMD
KCLL 212155Z 2122/2218 14011KT P6SM VCSH BKN009 OVC013
     FM220200 14010KT P6SM OVC010
     FM220900 13011KT P6SM VCSH OVC008
     FM221500 14010KT P6SM VCTS BKN014 OVC025CB
      TEMPO 2215/2218 TSRA=



000
FTUS44 KHGX 212155 AAB
TAFCLL
TAF AMD
KCLL 212155Z 2122/2218 14011KT P6SM VCSH BKN009 OVC013
     FM220200 14010KT P6SM OVC010
     FM220900 13011KT P6SM VCSH OVC008
     FM221500 14010KT P6SM VCTS BKN014 OVC025CB
      TEMPO 2215/2218 TSRA=



000
FTUS44 KHGX 212138 AAC
TAFUTS
TAF AMD
KUTS 212138Z 2122/2218 VRB04KT 5SM -RA BR SCT011 BKN017 OVC028
      TEMPO 2122/2124 1SM RA BR BKN008 OVC015
     FM220000 14005KT P6SM SCT015 OVC025
     FM220300 13016KT P6SM BKN015
     FM220600 12013KT P6SM OVC009
     FM221500 14010KT P6SM VCSH BKN014 OVC025=



000
FTUS44 KHGX 212138 AAC
TAFUTS
TAF AMD
KUTS 212138Z 2122/2218 VRB04KT 5SM -RA BR SCT011 BKN017 OVC028
      TEMPO 2122/2124 1SM RA BR BKN008 OVC015
     FM220000 14005KT P6SM SCT015 OVC025
     FM220300 13016KT P6SM BKN015
     FM220600 12013KT P6SM OVC009
     FM221500 14010KT P6SM VCSH BKN014 OVC025=



000
FTUS44 KHGX 212137 AAD
TAFIAH
TAF AMD
KIAH 212137Z 2122/2224 14011KT 4SM -RA BR BKN007 OVC012
     FM212300 14012KT P6SM OVC015
     FM220300 11010KT P6SM BKN025
     FM220900 12010KT P6SM VCSH OVC015
     FM222100 12010G18KT P6SM VCTS BKN025CB OVC040
      TEMPO 2221/2224 3SM SHRA OVC020=



000
FTUS44 KHGX 212137 AAD
TAFIAH
TAF AMD
KIAH 212137Z 2122/2224 14011KT 4SM -RA BR BKN007 OVC012
     FM212300 14012KT P6SM OVC015
     FM220300 11010KT P6SM BKN025
     FM220900 12010KT P6SM VCSH OVC015
     FM222100 12010G18KT P6SM VCTS BKN025CB OVC040
      TEMPO 2221/2224 3SM SHRA OVC020=



000
FTUS44 KHGX 212137 AAB
TAFHOU
TAF AMD
KHOU 212137Z 2122/2218 10012KT P6SM SCT006 BKN035 OVC045
     FM220000 12010KT P6SM SCT015 BKN025
     FM220300 13016KT P6SM BKN015
     FM220600 13011KT P6SM VCSH BKN015
     FM221500 13015G24KT P6SM -RA BKN020 PROB30 2215/2218 3SM SHRA=



000
FTUS44 KHGX 212137 AAB
TAFHOU
TAF AMD
KHOU 212137Z 2122/2218 10012KT P6SM SCT006 BKN035 OVC045
     FM220000 12010KT P6SM SCT015 BKN025
     FM220300 13016KT P6SM BKN015
     FM220600 13011KT P6SM VCSH BKN015
     FM221500 13015G24KT P6SM -RA BKN020 PROB30 2215/2218 3SM SHRA=



000
FTUS44 KHGX 212040 AAB
TAFUTS
TAF AMD
KUTS 212040Z 2121/2218 VRB04KT P6SM VCSH SCT011 BKN017 OVC028
      TEMPO 2121/2124 3SM RA BR BKN010 OVC015
     FM220000 14005KT P6SM SCT015 OVC025
     FM220300 13016KT P6SM BKN015
     FM220600 12013KT P6SM OVC010
     FM221500 14010KT P6SM VCSH BKN014 OVC025=



000
FTUS44 KHGX 212040 AAB
TAFUTS
TAF AMD
KUTS 212040Z 2121/2218 VRB04KT P6SM VCSH SCT011 BKN017 OVC028
      TEMPO 2121/2124 3SM RA BR BKN010 OVC015
     FM220000 14005KT P6SM SCT015 OVC025
     FM220300 13016KT P6SM BKN015
     FM220600 12013KT P6SM OVC010
     FM221500 14010KT P6SM VCSH BKN014 OVC025=



000
FTUS44 KHGX 212022 AAB
TAFCXO
TAF AMD
KCXO 212022Z 2120/2218 14007KT 5SM -RA BR OVC007
     FM212300 14010KT P6SM OVC012
     FM220000 13007KT P6SM SCT015 OVC025
     FM220300 13016KT P6SM BKN015
     FM220600 13015KT P6SM VCSH BKN015=



000
FTUS44 KHGX 212021 AAC
TAFIAH
TAF AMD
KIAH 212021Z 2120/2224 13011KT 2SM -RA BR BKN007 OVC011
     FM212300 14012KT P6SM OVC015
     FM220300 11010KT P6SM BKN025
     FM220900 12010KT P6SM VCSH OVC015
     FM222100 12010G18KT P6SM VCTS BKN025CB OVC040
      TEMPO 2221/2224 3SM SHRA OVC020=



000
FTUS44 KHGX 212021 AAC
TAFIAH
TAF AMD
KIAH 212021Z 2120/2224 13011KT 2SM -RA BR BKN007 OVC011
     FM212300 14012KT P6SM OVC015
     FM220300 11010KT P6SM BKN025
     FM220900 12010KT P6SM VCSH OVC015
     FM222100 12010G18KT P6SM VCTS BKN025CB OVC040
      TEMPO 2221/2224 3SM SHRA OVC020=



000
FTUS44 KHGX 212013 AAC
TAFSGR
TAF AMD
KSGR 212013Z 2120/2218 14010KT P6SM VCSH SCT015 BKN035
      TEMPO 2120/2121 2SM RA BKN035
     FM220000 12010KT P6SM SCT015 BKN025
     FM220300 13016KT P6SM BKN015
     FM220800 13011KT P6SM VCSH BKN012
     FM221600 13013G20KT P6SM VCTS BKN020 OVC030CB=



000
FTUS44 KHGX 212013 AAC
TAFSGR
TAF AMD
KSGR 212013Z 2120/2218 14010KT P6SM VCSH SCT015 BKN035
      TEMPO 2120/2121 2SM RA BKN035
     FM220000 12010KT P6SM SCT015 BKN025
     FM220300 13016KT P6SM BKN015
     FM220800 13011KT P6SM VCSH BKN012
     FM221600 13013G20KT P6SM VCTS BKN020 OVC030CB=



000
FTUS44 KHGX 211912 AAA
TAFGLS
TAF AMD
KGLS 211912Z 2119/2218 12011KT P6SM OVC040
      TEMPO 2119/2121 5SM -RA BR OVC030
     FM220300 12016KT P6SM VCSH BKN025
      TEMPO 2209/2213 4SM BR OVC012
     FM221500 14015G25KT P6SM VCTS BKN015 OVC030CB=



000
FTUS44 KHGX 211912 AAA
TAFGLS
TAF AMD
KGLS 211912Z 2119/2218 12011KT P6SM OVC040
      TEMPO 2119/2121 5SM -RA BR OVC030
     FM220300 12016KT P6SM VCSH BKN025
      TEMPO 2209/2213 4SM BR OVC012
     FM221500 14015G25KT P6SM VCTS BKN015 OVC030CB=



000
FTUS44 KHGX 211910 AAB
TAFSGR
TAF AMD
KSGR 211910Z 2119/2218 16010KT P6SM VCSH SCT015 BKN035
      TEMPO 2119/2120 2SM SHRA BR BKN015 OVC025
     FM220000 12010KT P6SM SCT015 BKN025
     FM220300 13016KT P6SM BKN015
     FM220800 13011KT P6SM VCSH BKN012
     FM221600 13013G20KT P6SM VCTS BKN020 OVC030CB=



000
FTUS44 KHGX 211910 AAB
TAFSGR
TAF AMD
KSGR 211910Z 2119/2218 16010KT P6SM VCSH SCT015 BKN035
      TEMPO 2119/2120 2SM SHRA BR BKN015 OVC025
     FM220000 12010KT P6SM SCT015 BKN025
     FM220300 13016KT P6SM BKN015
     FM220800 13011KT P6SM VCSH BKN012
     FM221600 13013G20KT P6SM VCTS BKN020 OVC030CB=



000
FTUS44 KHGX 211910 CCA
TAFSGR
TAF COR
KSGR 211910Z 2119/2218 16016KT P6SM VCSH SCT015 BKN035
      TEMPO 2119/2120 2SM SHRA BR BKN015 OVC025
     FM220000 12010KT P6SM SCT015 BKN025
     FM220300 13016KT P6SM BKN015
     FM220800 13011KT P6SM VCSH BKN012
     FM221600 13013G20KT P6SM VCTS BKN020 OVC030CB=



000
FTUS44 KHGX 211910 CCA
TAFSGR
TAF COR
KSGR 211910Z 2119/2218 16016KT P6SM VCSH SCT015 BKN035
      TEMPO 2119/2120 2SM SHRA BR BKN015 OVC025
     FM220000 12010KT P6SM SCT015 BKN025
     FM220300 13016KT P6SM BKN015
     FM220800 13011KT P6SM VCSH BKN012
     FM221600 13013G20KT P6SM VCTS BKN020 OVC030CB=



000
FTUS44 KHGX 211834 AAA
TAFLBX
TAF AMD
KLBX 211834Z 2119/2218 14005KT P6SM VCSH FEW029 BKN070 OVC080
      TEMPO 2119/2121 -RA BKN027
     FM220000 13010KT P6SM BKN035
     FM220300 13016KT P6SM BKN015
     FM220600 13013KT P6SM VCSH BKN015
      TEMPO 2210/2212 OVC010
     FM221600 13013G20KT P6SM VCTS BKN015 OVC030CB=



000
FTUS44 KHGX 211834 AAA
TAFLBX
TAF AMD
KLBX 211834Z 2119/2218 14005KT P6SM VCSH FEW029 BKN070 OVC080
      TEMPO 2119/2121 -RA BKN027
     FM220000 13010KT P6SM BKN035
     FM220300 13016KT P6SM BKN015
     FM220600 13013KT P6SM VCSH BKN015
      TEMPO 2210/2212 OVC010
     FM221600 13013G20KT P6SM VCTS BKN015 OVC030CB=



000
FTUS44 KHGX 211834 AAA
TAFSGR
TAF AMD
KSGR 211834Z 2119/2218 16010KT P6SM VCSH BKN014 OVC027
      TEMPO 2119/2120 5SM -SHRA
     FM220000 12010KT P6SM SCT015 BKN025
     FM220300 13016KT P6SM BKN015
     FM220800 13011KT P6SM VCSH BKN012
     FM221600 13013G20KT P6SM VCTS BKN020 OVC030CB=



000
FTUS44 KHGX 211833 AAA
TAFHOU
TAF AMD
KHOU 211833Z 2119/2218 09005KT 4SM -RA BR VCSH SCT005 BKN011 OVC018
      TEMPO 2119/2121 5SM -SHRA BKN015 OVC030
     FM220000 12010KT P6SM SCT015 BKN025
     FM220300 13016KT P6SM BKN015
     FM220600 13011KT P6SM VCSH BKN015
     FM221500 13015G24KT P6SM -RA BKN020 PROB30 2215/2218 3SM SHRA=



000
FTUS44 KHGX 211833 AAB
TAFIAH
TAF AMD
KIAH 211833Z 2119/2224 13008KT P6SM -RA BKN007 OVC012
     FM212100 14012KT P6SM VCSH OVC018
     FM220000 12012KT P6SM SCT025 OVC050
     FM220300 11010KT P6SM BKN025
     FM220900 12010KT P6SM VCSH OVC020
     FM222100 12010G18KT P6SM VCTS BKN025CB OVC040
      TEMPO 2221/2224 3SM SHRA OVC020=



000
FTUS44 KHGX 211833 AAA
TAFHOU
TAF AMD
KHOU 211833Z 2119/2218 09005KT 4SM -RA BR VCSH SCT005 BKN011 OVC018
      TEMPO 2119/2121 5SM -SHRA BKN015 OVC030
     FM220000 12010KT P6SM SCT015 BKN025
     FM220300 13016KT P6SM BKN015
     FM220600 13011KT P6SM VCSH BKN015
     FM221500 13015G24KT P6SM -RA BKN020 PROB30 2215/2218 3SM SHRA=



000
FTUS44 KHGX 211833 AAB
TAFIAH
TAF AMD
KIAH 211833Z 2119/2224 13008KT P6SM -RA BKN007 OVC012
     FM212100 14012KT P6SM VCSH OVC018
     FM220000 12012KT P6SM SCT025 OVC050
     FM220300 11010KT P6SM BKN025
     FM220900 12010KT P6SM VCSH OVC020
     FM222100 12010G18KT P6SM VCTS BKN025CB OVC040
      TEMPO 2221/2224 3SM SHRA OVC020=



000
FTUS44 KHGX 211831 AAA
TAFCLL
TAF AMD
KCLL 211831Z 2119/2218 14010KT 4SM -RA BR OVC006
     FM212100 16012KT P6SM -RA VCSH BKN018 BKN030
     FM220000 13016KT P6SM BKN015
     FM220600 13015KT P6SM VCSH BKN015
     FM220900 13011KT P6SM VCSH OVC008
     FM221500 14010KT P6SM VCTS BKN014 OVC025CB
      TEMPO 2215/2218 TSRA=



000
FTUS44 KHGX 211831 AAA
TAFUTS
TAF AMD
KUTS 211831Z 2119/2218 15007KT P6SM VCSH OVC008
      TEMPO 2119/2122 -RA
     FM212200 16008KT P6SM VCSH OVC015
     FM220000 14005KT P6SM SCT015 OVC025
     FM220300 13016KT P6SM BKN015
     FM220600 12013KT P6SM OVC010
     FM221500 14010KT P6SM VCSH BKN014 OVC025=



000
FTUS44 KHGX 211831 AAA
TAFCXO
TAF AMD
KCXO 211831Z 2119/2218 14010KT 6SM -RA BR OVC009
     FM212000 14012KT P6SM OVC015
      TEMPO 2120/2123 -RA
     FM220000 13007KT P6SM SCT015 OVC025
     FM220300 13016KT P6SM BKN015
     FM220600 13015KT P6SM VCSH BKN015=



000
FTUS44 KHGX 211831 AAA
TAFCXO
TAF AMD
KCXO 211831Z 2119/2218 14010KT 6SM -RA BR OVC009
     FM212000 14012KT P6SM OVC015
      TEMPO 2120/2123 -RA
     FM220000 13007KT P6SM SCT015 OVC025
     FM220300 13016KT P6SM BKN015
     FM220600 13015KT P6SM VCSH BKN015=



000
FTUS44 KHGX 211831 AAA
TAFCLL
TAF AMD
KCLL 211831Z 2119/2218 14010KT 4SM -RA BR OVC006
     FM212100 16012KT P6SM -RA VCSH BKN018 BKN030
     FM220000 13016KT P6SM BKN015
     FM220600 13015KT P6SM VCSH BKN015
     FM220900 13011KT P6SM VCSH OVC008
     FM221500 14010KT P6SM VCTS BKN014 OVC025CB
      TEMPO 2215/2218 TSRA=



000
FTUS44 KHGX 211831 AAA
TAFUTS
TAF AMD
KUTS 211831Z 2119/2218 15007KT P6SM VCSH OVC008
      TEMPO 2119/2122 -RA
     FM212200 16008KT P6SM VCSH OVC015
     FM220000 14005KT P6SM SCT015 OVC025
     FM220300 13016KT P6SM BKN015
     FM220600 12013KT P6SM OVC010
     FM221500 14010KT P6SM VCSH BKN014 OVC025=



000
FTUS44 KHGX 211800 AAA
TAFIAH
TAF AMD
KIAH 211800Z 2118/2224 14013KT P6SM -SHRA BKN011 OVC025
     FM211900 14012KT P6SM VCSH SCT025 BKN035
     FM220000 12012KT P6SM SCT025 OVC050
     FM220300 11010KT P6SM BKN025
     FM220900 12010KT P6SM VCSH OVC020
     FM222100 12010G18KT P6SM VCTS BKN025CB OVC040
      TEMPO 2221/2224 3SM SHRA OVC020=



000
FTUS44 KHGX 211800 AAA
TAFIAH
TAF AMD
KIAH 211800Z 2118/2224 14013KT P6SM -SHRA BKN011 OVC025
     FM211900 14012KT P6SM VCSH SCT025 BKN035
     FM220000 12012KT P6SM SCT025 OVC050
     FM220300 11010KT P6SM BKN025
     FM220900 12010KT P6SM VCSH OVC020
     FM222100 12010G18KT P6SM VCTS BKN025CB OVC040
      TEMPO 2221/2224 3SM SHRA OVC020=



000
FTUS44 KHGX 211739
TAFHOU
TAF
KHOU 211739Z 2118/2218 13015KT P6SM VCSH SCT020 BKN030
      TEMPO 2118/2121 5SM -SHRA BKN015 OVC035
     FM220000 12010KT P6SM SCT015 BKN025
     FM220300 13016KT P6SM BKN015
     FM220600 13011KT P6SM VCSH BKN015
     FM221500 13015G24KT P6SM -RA BKN020 PROB30 2215/2218 3SM SHRA=



000
FTUS44 KHGX 211739
TAFHOU
TAF
KHOU 211739Z 2118/2218 13015KT P6SM VCSH SCT020 BKN030
      TEMPO 2118/2121 5SM -SHRA BKN015 OVC035
     FM220000 12010KT P6SM SCT015 BKN025
     FM220300 13016KT P6SM BKN015
     FM220600 13011KT P6SM VCSH BKN015
     FM221500 13015G24KT P6SM -RA BKN020 PROB30 2215/2218 3SM SHRA=



000
FTUS44 KHGX 211739
TAFGLS
TAF
KGLS 211739Z 2118/2218 12014KT P6SM OVC050
     FM220300 12016KT P6SM VCSH BKN025
      TEMPO 2209/2213 4SM BR OVC012
     FM221500 14015G25KT P6SM VCTS BKN015 OVC030CB=



000
FTUS44 KHGX 211739
TAFLBX
TAF
KLBX 211739Z 2118/2218 15012G20KT P6SM VCSH BKN035 BKN050
     FM220000 13010KT P6SM BKN050
     FM220300 13016KT P6SM BKN015
     FM220600 13013KT P6SM VCSH BKN015
      TEMPO 2210/2212 OVC010
     FM221600 13013G20KT P6SM VCTS BKN015 OVC030CB=



000
FTUS44 KHGX 211739
TAFSGR
TAF
KSGR 211739Z 2118/2218 13015KT P6SM VCSH BKN025 OVC040
      TEMPO 2118/2121 5SM -SHRA BKN015 OVC025
     FM220000 12010KT P6SM SCT015 BKN025
     FM220300 13016KT P6SM BKN015
     FM220800 13011KT P6SM VCSH BKN012
     FM221600 13013G20KT P6SM VCTS BKN020 OVC030CB=



000
FTUS44 KHGX 211739
TAFGLS
TAF
KGLS 211739Z 2118/2218 12014KT P6SM OVC050
     FM220300 12016KT P6SM VCSH BKN025
      TEMPO 2209/2213 4SM BR OVC012
     FM221500 14015G25KT P6SM VCTS BKN015 OVC030CB=



000
FTUS44 KHGX 211739
TAFLBX
TAF
KLBX 211739Z 2118/2218 15012G20KT P6SM VCSH BKN035 BKN050
     FM220000 13010KT P6SM BKN050
     FM220300 13016KT P6SM BKN015
     FM220600 13013KT P6SM VCSH BKN015
      TEMPO 2210/2212 OVC010
     FM221600 13013G20KT P6SM VCTS BKN015 OVC030CB=



000
FTUS44 KHGX 211739
TAFSGR
TAF
KSGR 211739Z 2118/2218 13015KT P6SM VCSH BKN025 OVC040
      TEMPO 2118/2121 5SM -SHRA BKN015 OVC025
     FM220000 12010KT P6SM SCT015 BKN025
     FM220300 13016KT P6SM BKN015
     FM220800 13011KT P6SM VCSH BKN012
     FM221600 13013G20KT P6SM VCTS BKN020 OVC030CB=



000
FTUS44 KHGX 211725
TAFCXO
TAF
KCXO 211725Z 2118/2218 13008KT P6SM -RA BKN014 OVC030
     FM211900 14012KT P6SM SCT025 BKN040
      TEMPO 2119/2122 -RA
     FM220000 13007KT P6SM SCT015 OVC025
     FM220300 13016KT P6SM BKN015
     FM220600 13015KT P6SM VCSH BKN015=



000
FTUS44 KHGX 211725
TAFIAH
TAF
KIAH 211725Z 2118/2224 14013KT P6SM -SHRA SCT020 BKN045
     FM211900 14012KT P6SM VCSH SCT030 BKN045
     FM220000 12012KT P6SM SCT025 OVC050
     FM220300 11010KT P6SM BKN025
     FM220900 12010KT P6SM VCSH OVC020
     FM222100 12010G18KT P6SM VCTS BKN025CB OVC040
      TEMPO 2221/2224 3SM SHRA OVC020=



000
FTUS44 KHGX 211725
TAFCLL
TAF
KCLL 211725Z 2118/2218 14009KT P6SM VCSH BKN006 BKN015 OVC022
     FM211930 16012KT P6SM -RA VCSH BKN018 BKN030
     FM220000 13016KT P6SM BKN015
     FM220600 13015KT P6SM VCSH BKN015
     FM220900 13011KT P6SM VCSH OVC008
     FM221500 14010KT P6SM VCTS BKN014 OVC025CB
      TEMPO 2215/2218 TSRA=



000
FTUS44 KHGX 211725
TAFUTS
TAF
KUTS 211725Z 2118/2218 14007KT P6SM VCSH SCT010 BKN018
     FM211900 16008KT P6SM VCSH SCT020 BKN028
      TEMPO 2119/2122 -RA
     FM220000 14005KT P6SM SCT015 OVC025
     FM220300 13016KT P6SM BKN015
     FM220600 12013KT P6SM OVC010
     FM221500 14010KT P6SM VCSH BKN014 OVC025=



000
FTUS44 KHGX 211725
TAFCXO
TAF
KCXO 211725Z 2118/2218 13008KT P6SM -RA BKN014 OVC030
     FM211900 14012KT P6SM SCT025 BKN040
      TEMPO 2119/2122 -RA
     FM220000 13007KT P6SM SCT015 OVC025
     FM220300 13016KT P6SM BKN015
     FM220600 13015KT P6SM VCSH BKN015=



000
FTUS44 KHGX 211725
TAFIAH
TAF
KIAH 211725Z 2118/2224 14013KT P6SM -SHRA SCT020 BKN045
     FM211900 14012KT P6SM VCSH SCT030 BKN045
     FM220000 12012KT P6SM SCT025 OVC050
     FM220300 11010KT P6SM BKN025
     FM220900 12010KT P6SM VCSH OVC020
     FM222100 12010G18KT P6SM VCTS BKN025CB OVC040
      TEMPO 2221/2224 3SM SHRA OVC020=



000
FTUS44 KHGX 211725
TAFUTS
TAF
KUTS 211725Z 2118/2218 14007KT P6SM VCSH SCT010 BKN018
     FM211900 16008KT P6SM VCSH SCT020 BKN028
      TEMPO 2119/2122 -RA
     FM220000 14005KT P6SM SCT015 OVC025
     FM220300 13016KT P6SM BKN015
     FM220600 12013KT P6SM OVC010
     FM221500 14010KT P6SM VCSH BKN014 OVC025=



000
FTUS44 KHGX 211725
TAFCLL
TAF
KCLL 211725Z 2118/2218 14009KT P6SM VCSH BKN006 BKN015 OVC022
     FM211930 16012KT P6SM -RA VCSH BKN018 BKN030
     FM220000 13016KT P6SM BKN015
     FM220600 13015KT P6SM VCSH BKN015
     FM220900 13011KT P6SM VCSH OVC008
     FM221500 14010KT P6SM VCTS BKN014 OVC025CB
      TEMPO 2215/2218 TSRA=



000
FTUS44 KHGX 211557 AAC
TAFCLL
TAF AMD
KCLL 211557Z 2116/2212 14007KT P6SM VCSH BKN008 BKN015 OVC022
      TEMPO 2116/2118 -RA OVC004
     FM211800 16014KT P6SM VCSH SCT025 BKN030
     FM220000 14012KT P6SM SCT015 OVC025
     FM220300 13016KT P6SM BKN015
     FM220600 13015KT P6SM VCSH BKN015
     FM220900 13011KT P6SM VCSH OVC009=



000
FTUS44 KHGX 211557 AAC
TAFCLL
TAF AMD
KCLL 211557Z 2116/2212 14007KT P6SM VCSH BKN008 BKN015 OVC022
      TEMPO 2116/2118 -RA OVC004
     FM211800 16014KT P6SM VCSH SCT025 BKN030
     FM220000 14012KT P6SM SCT015 OVC025
     FM220300 13016KT P6SM BKN015
     FM220600 13015KT P6SM VCSH BKN015
     FM220900 13011KT P6SM VCSH OVC009=



000
FTUS44 KHGX 211557 AAC
TAFCLL
TAF AMD
KCLL 211557Z 2116/2212 14007KT P6SM VCSH BKN008 BKN015 OVC022
      TEMPO 2116/2118 -RA OVC004
     FM211800 16014KT P6SM VCSH SCT025 BKN030
     FM220000 14012KT P6SM SCT015 OVC025
     FM220300 13016KT P6SM BKN015
     FM220600 13015KT P6SM VCSH BKN015
     FM220900 13011KT P6SM VCSH OVC009=



000
FTUS44 KHGX 211557 AAC
TAFCLL
TAF AMD
KCLL 211557Z 2116/2212 14007KT P6SM VCSH BKN008 BKN015 OVC022
      TEMPO 2116/2118 -RA OVC004
     FM211800 16014KT P6SM VCSH SCT025 BKN030
     FM220000 14012KT P6SM SCT015 OVC025
     FM220300 13016KT P6SM BKN015
     FM220600 13015KT P6SM VCSH BKN015
     FM220900 13011KT P6SM VCSH OVC009=



000
FTUS44 KHGX 211516 AAB
TAFCLL
TAF AMD
KCLL 211516Z 2115/2212 14007KT P6SM VCSH BKN008 BKN015 OVC022
      TEMPO 2115/2117 -RA
     FM211700 16014KT P6SM VCSH SCT025 BKN030
     FM220000 14012KT P6SM SCT015 OVC025
     FM220300 13016KT P6SM BKN015
     FM220600 13015KT P6SM VCSH BKN015
     FM220900 13011KT P6SM VCSH OVC009=



000
FTUS44 KHGX 211516 AAB
TAFCLL
TAF AMD
KCLL 211516Z 2115/2212 14007KT P6SM VCSH BKN008 BKN015 OVC022
      TEMPO 2115/2117 -RA
     FM211700 16014KT P6SM VCSH SCT025 BKN030
     FM220000 14012KT P6SM SCT015 OVC025
     FM220300 13016KT P6SM BKN015
     FM220600 13015KT P6SM VCSH BKN015
     FM220900 13011KT P6SM VCSH OVC009=



000
FTUS44 KHGX 211514 AAD
TAFLBX
TAF AMD
KLBX 211514Z 2115/2212 12007KT P6SM -RA OVC027
     FM211800 15012G20KT P6SM VCSH BKN035 BKN050
     FM220000 13010KT P6SM BKN050
     FM220300 13016KT P6SM BKN015
     FM220600 13015KT P6SM VCSH BKN015
      TEMPO 2210/2212 OVC010=



000
FTUS44 KHGX 211514 AAD
TAFLBX
TAF AMD
KLBX 211514Z 2115/2212 12007KT P6SM -RA OVC027
     FM211800 15012G20KT P6SM VCSH BKN035 BKN050
     FM220000 13010KT P6SM BKN050
     FM220300 13016KT P6SM BKN015
     FM220600 13015KT P6SM VCSH BKN015
      TEMPO 2210/2212 OVC010=



000
FTUS44 KHGX 211514 AAA
TAFSGR
TAF AMD
KSGR 211514Z 2115/2212 12007KT P6SM VCSH SCT016 OVC029
      TEMPO 2115/2118 2SM RA BR BKN009 OVC018
     FM211800 13015KT P6SM VCSH SCT025 BKN045
      TEMPO 2118/2120 -RA
     FM220000 12010KT P6SM SCT015 BKN025
     FM220300 13016KT P6SM BKN015
     FM220600 13015KT P6SM VCSH BKN015=



000
FTUS44 KHGX 211514 AAA
TAFSGR
TAF AMD
KSGR 211514Z 2115/2212 12007KT P6SM VCSH SCT016 OVC029
      TEMPO 2115/2118 2SM RA BR BKN009 OVC018
     FM211800 13015KT P6SM VCSH SCT025 BKN045
      TEMPO 2118/2120 -RA
     FM220000 12010KT P6SM SCT015 BKN025
     FM220300 13016KT P6SM BKN015
     FM220600 13015KT P6SM VCSH BKN015=



000
FTUS44 KHGX 211514 AAA
TAFGLS
TAF AMD
KGLS 211514Z 2115/2212 13012KT P6SM -RA VCSH BKN045 OVC060
     FM211700 12014KT P6SM OVC050
     FM220300 12016KT P6SM VCSH BKN025
      TEMPO 2208/2212 5SM BR OVC012=



000
FTUS44 KHGX 211514 AAA
TAFGLS
TAF AMD
KGLS 211514Z 2115/2212 13012KT P6SM -RA VCSH BKN045 OVC060
     FM211700 12014KT P6SM OVC050
     FM220300 12016KT P6SM VCSH BKN025
      TEMPO 2208/2212 5SM BR OVC012=



000
FTUS44 KHGX 211508 AAA
TAFCXO
TAF AMD
KCXO 211508Z 2115/2212 12005KT P6SM VCSH BKN006 OVC020
      TEMPO 2115/2118 4SM -RA BKN015
     FM211800 14012KT P6SM SCT025 BKN040
     FM220000 13007KT P6SM SCT015 OVC025
     FM220300 13016KT P6SM BKN015
     FM220600 13015KT P6SM VCSH BKN015=



000
FTUS44 KHGX 211508 AAA
TAFCXO
TAF AMD
KCXO 211508Z 2115/2212 12005KT P6SM VCSH BKN006 OVC020
      TEMPO 2115/2118 4SM -RA BKN015
     FM211800 14012KT P6SM SCT025 BKN040
     FM220000 13007KT P6SM SCT015 OVC025
     FM220300 13016KT P6SM BKN015
     FM220600 13015KT P6SM VCSH BKN015=



000
FTUS44 KHGX 211508 AAC
TAFUTS
TAF AMD
KUTS 211508Z 2115/2212 15007KT P6SM VCSH SCT006 BKN015
      TEMPO 2115/2118 -RA OVC008
     FM211800 16010KT P6SM VCSH SCT025 BKN030
     FM220000 14005KT P6SM SCT015 OVC025
     FM220300 13016KT P6SM BKN015
     FM220600 13015KT P6SM VCSH BKN015=



000
FTUS44 KHGX 211508 AAA
TAFCLL
TAF AMD
KCLL 211508Z 2115/2212 14007KT P6SM VCSH BKN008 BKN015 OVC022
      TEMPO 2115/2117 -RA
     FM211700 16014KT P6SM VCSH SCT025 BKN030
     FM220000 14012KT P6SM SCT015 OVC025
     FM220300 13016KT P6SM BKN015
     FM220600 13015KT P6SM VCSH BKN015=



000
FTUS44 KHGX 211508 AAA
TAFIAH
TAF AMD
KIAH 211508Z 2115/2218 13008KT P6SM VCSH SCT015 OVC040
      TEMPO 2115/2118 5SM -RA BR BKN015 OVC025
     FM211800 14014KT P6SM VCSH SCT025 BKN045
     FM220000 12012KT P6SM SCT015 OVC050
     FM220300 11010KT P6SM SCT015 BKN025
     FM220600 12010KT P6SM VCSH OVC015
     FM221500 12008KT P6SM OVC025=



000
FTUS44 KHGX 211508 AAA
TAFHOU
TAF AMD
KHOU 211508Z 2115/2212 12008KT P6SM VCSH FEW015 OVC040
      TEMPO 2115/2118 4SM RA BR BKN015 OVC025
     FM211800 13015KT P6SM VCSH SCT025 BKN045
     FM220000 12010KT P6SM SCT015 BKN025
     FM220300 13016KT P6SM BKN015
     FM220600 13015KT P6SM VCSH BKN015=



000
FTUS44 KHGX 211508 AAC
TAFUTS
TAF AMD
KUTS 211508Z 2115/2212 15007KT P6SM VCSH SCT006 BKN015
      TEMPO 2115/2118 -RA OVC008
     FM211800 16010KT P6SM VCSH SCT025 BKN030
     FM220000 14005KT P6SM SCT015 OVC025
     FM220300 13016KT P6SM BKN015
     FM220600 13015KT P6SM VCSH BKN015=



000
FTUS44 KHGX 211508 AAA
TAFIAH
TAF AMD
KIAH 211508Z 2115/2218 13008KT P6SM VCSH SCT015 OVC040
      TEMPO 2115/2118 5SM -RA BR BKN015 OVC025
     FM211800 14014KT P6SM VCSH SCT025 BKN045
     FM220000 12012KT P6SM SCT015 OVC050
     FM220300 11010KT P6SM SCT015 BKN025
     FM220600 12010KT P6SM VCSH OVC015
     FM221500 12008KT P6SM OVC025=



000
FTUS44 KHGX 211508 AAA
TAFCLL
TAF AMD
KCLL 211508Z 2115/2212 14007KT P6SM VCSH BKN008 BKN015 OVC022
      TEMPO 2115/2117 -RA
     FM211700 16014KT P6SM VCSH SCT025 BKN030
     FM220000 14012KT P6SM SCT015 OVC025
     FM220300 13016KT P6SM BKN015
     FM220600 13015KT P6SM VCSH BKN015=



000
FTUS44 KHGX 211508 AAA
TAFHOU
TAF AMD
KHOU 211508Z 2115/2212 12008KT P6SM VCSH FEW015 OVC040
      TEMPO 2115/2118 4SM RA BR BKN015 OVC025
     FM211800 13015KT P6SM VCSH SCT025 BKN045
     FM220000 12010KT P6SM SCT015 BKN025
     FM220300 13016KT P6SM BKN015
     FM220600 13015KT P6SM VCSH BKN015=



000
FTUS44 KHGX 211356 AAC
TAFLBX
TAF AMD
KLBX 211356Z 2114/2212 08007KT P6SM -RA VCSH OVC035
      TEMPO 2114/2115 5SM -RA BR BKN015
     FM211500 15011KT P6SM BKN025
     FM211800 15015G23KT P6SM VCSH SCT030 BKN050
     FM220000 13010KT P6SM BKN050
     FM220300 13016KT P6SM BKN015
     FM220600 13015KT P6SM VCSH BKN015=



000
FTUS44 KHGX 211356 AAC
TAFLBX
TAF AMD
KLBX 211356Z 2114/2212 08007KT P6SM -RA VCSH OVC035
      TEMPO 2114/2115 5SM -RA BR BKN015
     FM211500 15011KT P6SM BKN025
     FM211800 15015G23KT P6SM VCSH SCT030 BKN050
     FM220000 13010KT P6SM BKN050
     FM220300 13016KT P6SM BKN015
     FM220600 13015KT P6SM VCSH BKN015=



000
FTUS44 KHGX 211355 AAB
TAFUTS
TAF AMD
KUTS 211355Z 2114/2212 13005KT P6SM VCSH SCT006 BKN015
      TEMPO 2114/2115 18010G20KT 1SM RA BR BKN006
     FM211500 15011KT P6SM BKN015
     FM211800 16010KT P6SM VCSH SCT025 BKN035
     FM220000 14005KT P6SM SCT015 OVC025
     FM220300 13016KT P6SM BKN015
     FM220600 13015KT P6SM VCSH BKN015=



000
FTUS44 KHGX 211355 AAB
TAFUTS
TAF AMD
KUTS 211355Z 2114/2212 13005KT P6SM VCSH SCT006 BKN015
      TEMPO 2114/2115 18010G20KT 1SM RA BR BKN006
     FM211500 15011KT P6SM BKN015
     FM211800 16010KT P6SM VCSH SCT025 BKN035
     FM220000 14005KT P6SM SCT015 OVC025
     FM220300 13016KT P6SM BKN015
     FM220600 13015KT P6SM VCSH BKN015=



000
FTUS44 KHGX 211301 AAA
TAFUTS
TAF AMD
KUTS 211301Z 2113/2212 13005KT P6SM VCSH SCT006 BKN015
      TEMPO 2113/2115 5SM RA BR BKN007
     FM211500 15011KT P6SM BKN015
     FM211800 16010KT P6SM VCSH SCT025 BKN035
     FM220000 14005KT P6SM SCT015 OVC025
     FM220300 13016KT P6SM BKN015
     FM220600 13015KT P6SM VCSH BKN015=



000
FTUS44 KHGX 211301 AAA
TAFUTS
TAF AMD
KUTS 211301Z 2113/2212 13005KT P6SM VCSH SCT006 BKN015
      TEMPO 2113/2115 5SM RA BR BKN007
     FM211500 15011KT P6SM BKN015
     FM211800 16010KT P6SM VCSH SCT025 BKN035
     FM220000 14005KT P6SM SCT015 OVC025
     FM220300 13016KT P6SM BKN015
     FM220600 13015KT P6SM VCSH BKN015=



000
FTUS44 KHGX 211301 AAB
TAFLBX
TAF AMD
KLBX 211301Z 2113/2212 35003KT P6SM VCSH OVC016
      TEMPO 2113/2115 5SM -RA BR BKN005
     FM211500 15011KT P6SM BKN025
     FM211800 15015G23KT P6SM VCSH SCT030 BKN050
     FM220000 13010KT P6SM BKN050
     FM220300 13016KT P6SM BKN015
     FM220600 13015KT P6SM VCSH BKN015=



000
FTUS44 KHGX 211301 AAB
TAFLBX
TAF AMD
KLBX 211301Z 2113/2212 35003KT P6SM VCSH OVC016
      TEMPO 2113/2115 5SM -RA BR BKN005
     FM211500 15011KT P6SM BKN025
     FM211800 15015G23KT P6SM VCSH SCT030 BKN050
     FM220000 13010KT P6SM BKN050
     FM220300 13016KT P6SM BKN015
     FM220600 13015KT P6SM VCSH BKN015=



000
FTUS44 KHGX 211220 AAA
TAFLBX
TAF AMD
KLBX 211220Z 2112/2212 35003KT P6SM VCSH OVC026
      TEMPO 2112/2115 5SM -RA BR BKN005
     FM211500 15011KT P6SM BKN025
     FM211800 15015G23KT P6SM VCSH SCT030 BKN050
     FM220000 13010KT P6SM BKN050
     FM220300 13016KT P6SM BKN015
     FM220600 13015KT P6SM VCSH BKN015=



000
FTUS44 KHGX 211220 AAA
TAFLBX
TAF AMD
KLBX 211220Z 2112/2212 35003KT P6SM VCSH OVC026
      TEMPO 2112/2115 5SM -RA BR BKN005
     FM211500 15011KT P6SM BKN025
     FM211800 15015G23KT P6SM VCSH SCT030 BKN050
     FM220000 13010KT P6SM BKN050
     FM220300 13016KT P6SM BKN015
     FM220600 13015KT P6SM VCSH BKN015=



000
FTUS44 KHGX 211135
TAFIAH
TAF
KIAH 211135Z 2112/2218 12005KT P6SM VCSH BKN015 OVC035
      TEMPO 2112/2114 5SM -RA BR BKN005
     FM211800 14014KT P6SM VCSH SCT025 BKN045
     FM220000 12012KT P6SM SCT015 OVC050
     FM220300 11010KT P6SM SCT015 BKN025
     FM220600 12010KT P6SM VCSH OVC015
     FM221500 12008KT P6SM OVC025=



000
FTUS44 KHGX 211135
TAFGLS
TAF
KGLS 211135Z 2112/2212 14011KT P6SM VCSH FEW030 SCT070 OVC080
     FM211700 12014KT P6SM OVC050
     FM220300 13016KT P6SM VCSH BKN025=



000
FTUS44 KHGX 211135
TAFCLL
TAF
KCLL 211135Z 2112/2212 13004KT P6SM VCSH BKN008 BKN015 OVC022
     FM211500 15011KT P6SM BKN015
     FM211800 16014KT P6SM VCSH SCT025 BKN035
     FM220000 14012KT P6SM SCT015 OVC025
     FM220300 13016KT P6SM BKN015
     FM220600 13015KT P6SM VCSH BKN015=



000
FTUS44 KHGX 211135
TAFUTS
TAF
KUTS 211135Z 2112/2212 13005KT P6SM VCSH SCT006 BKN035
      TEMPO 2112/2115 5SM RA BR BKN007
     FM211500 15011KT P6SM BKN015
     FM211800 16010KT P6SM VCSH SCT025 BKN035
     FM220000 14005KT P6SM SCT015 OVC025
     FM220300 13016KT P6SM BKN015
     FM220600 13015KT P6SM VCSH BKN015=



000
FTUS44 KHGX 211135
TAFSGR
TAF
KSGR 211135Z 2112/2212 12006KT P6SM VCSH FEW007 FEW017 OVC045
     FM211500 15011KT P6SM BKN025
     FM211800 14012KT P6SM VCSH SCT030 BKN045
     FM220000 12009KT P6SM SCT015 BKN025
     FM220300 13016KT P6SM BKN015
     FM220600 13015KT P6SM VCSH BKN015=



000
FTUS44 KHGX 211135
TAFHOU
TAF
KHOU 211135Z 2112/2212 12006KT P6SM VCSH FEW014 OVC023
      TEMPO 2112/2115 2SM RA BR BKN005
     FM211500 15011KT P6SM BKN015
     FM211800 13015KT P6SM VCSH SCT025 BKN045
     FM220000 12010KT P6SM SCT015 BKN025
     FM220300 13016KT P6SM BKN015
     FM220600 13015KT P6SM VCSH BKN015=



000
FTUS44 KHGX 211135
TAFCXO
TAF
KCXO 211135Z 2112/2212 12005KT P6SM VCSH BKN005
     FM211500 15011KT P6SM BKN015
     FM211800 14012KT P6SM SCT025 BKN040
     FM220000 13007KT P6SM SCT015 OVC025
     FM220300 13016KT P6SM BKN015
     FM220600 13015KT P6SM VCSH BKN015=



000
FTUS44 KHGX 211135
TAFLBX
TAF
KLBX 211135Z 2112/2212 11008KT P6SM VCSH BKN030 OVC040
      TEMPO 2112/2115 5SM -RA BR BKN005
     FM211500 15011KT P6SM BKN025
     FM211800 15015G23KT P6SM VCSH SCT030 BKN050
     FM220000 13010KT P6SM BKN050
     FM220300 13016KT P6SM BKN015
     FM220600 13015KT P6SM VCSH BKN015=



000
FTUS44 KHGX 211135
TAFLBX
TAF
KLBX 211135Z 2112/2212 11008KT P6SM VCSH BKN030 OVC040
      TEMPO 2112/2115 5SM -RA BR BKN005
     FM211500 15011KT P6SM BKN025
     FM211800 15015G23KT P6SM VCSH SCT030 BKN050
     FM220000 13010KT P6SM BKN050
     FM220300 13016KT P6SM BKN015
     FM220600 13015KT P6SM VCSH BKN015=



000
FTUS44 KHGX 211135
TAFGLS
TAF
KGLS 211135Z 2112/2212 14011KT P6SM VCSH FEW030 SCT070 OVC080
     FM211700 12014KT P6SM OVC050
     FM220300 13016KT P6SM VCSH BKN025=



000
FTUS44 KHGX 211135
TAFCXO
TAF
KCXO 211135Z 2112/2212 12005KT P6SM VCSH BKN005
     FM211500 15011KT P6SM BKN015
     FM211800 14012KT P6SM SCT025 BKN040
     FM220000 13007KT P6SM SCT015 OVC025
     FM220300 13016KT P6SM BKN015
     FM220600 13015KT P6SM VCSH BKN015=



000
FTUS44 KHGX 211135
TAFHOU
TAF
KHOU 211135Z 2112/2212 12006KT P6SM VCSH FEW014 OVC023
      TEMPO 2112/2115 2SM RA BR BKN005
     FM211500 15011KT P6SM BKN015
     FM211800 13015KT P6SM VCSH SCT025 BKN045
     FM220000 12010KT P6SM SCT015 BKN025
     FM220300 13016KT P6SM BKN015
     FM220600 13015KT P6SM VCSH BKN015=



000
FTUS44 KHGX 211135
TAFCLL
TAF
KCLL 211135Z 2112/2212 13004KT P6SM VCSH BKN008 BKN015 OVC022
     FM211500 15011KT P6SM BKN015
     FM211800 16014KT P6SM VCSH SCT025 BKN035
     FM220000 14012KT P6SM SCT015 OVC025
     FM220300 13016KT P6SM BKN015
     FM220600 13015KT P6SM VCSH BKN015=



000
FTUS44 KHGX 211135
TAFUTS
TAF
KUTS 211135Z 2112/2212 13005KT P6SM VCSH SCT006 BKN035
      TEMPO 2112/2115 5SM RA BR BKN007
     FM211500 15011KT P6SM BKN015
     FM211800 16010KT P6SM VCSH SCT025 BKN035
     FM220000 14005KT P6SM SCT015 OVC025
     FM220300 13016KT P6SM BKN015
     FM220600 13015KT P6SM VCSH BKN015=



000
FTUS44 KHGX 211135
TAFIAH
TAF
KIAH 211135Z 2112/2218 12005KT P6SM VCSH BKN015 OVC035
      TEMPO 2112/2114 5SM -RA BR BKN005
     FM211800 14014KT P6SM VCSH SCT025 BKN045
     FM220000 12012KT P6SM SCT015 OVC050
     FM220300 11010KT P6SM SCT015 BKN025
     FM220600 12010KT P6SM VCSH OVC015
     FM221500 12008KT P6SM OVC025=



000
FTUS44 KHGX 211135
TAFSGR
TAF
KSGR 211135Z 2112/2212 12006KT P6SM VCSH FEW007 FEW017 OVC045
     FM211500 15011KT P6SM BKN025
     FM211800 14012KT P6SM VCSH SCT030 BKN045
     FM220000 12009KT P6SM SCT015 BKN025
     FM220300 13016KT P6SM BKN015
     FM220600 13015KT P6SM VCSH BKN015=



000
FTUS44 KHGX 211032 AAA
TAFUTS
TAF AMD
KUTS 211032Z 2111/2206 VRB02KT P6SM VCSH BKN025 OVC035
      TEMPO 2111/2114 -RA BKN007
     FM211700 16010KT P6SM VCSH SCT025 BKN035
     FM220000 14005KT P6SM SCT015 OVC025=



000
FTUS44 KHGX 211032 AAA
TAFUTS
TAF AMD
KUTS 211032Z 2111/2206 VRB02KT P6SM VCSH BKN025 OVC035
      TEMPO 2111/2114 -RA BKN007
     FM211700 16010KT P6SM VCSH SCT025 BKN035
     FM220000 14005KT P6SM SCT015 OVC025=



000
FTUS44 KHGX 211011 AAA
TAFLBX
TAF AMD
KLBX 211011Z 2110/2206 11005KT P6SM -RA FEW027 BKN040 OVC045
     FM211700 15015G23KT P6SM VCSH SCT030 BKN050
     FM220000 13010KT P6SM BKN050=



000
FTUS44 KHGX 211011 AAA
TAFLBX
TAF AMD
KLBX 211011Z 2110/2206 11005KT P6SM -RA FEW027 BKN040 OVC045
     FM211700 15015G23KT P6SM VCSH SCT030 BKN050
     FM220000 13010KT P6SM BKN050=



000
FTUS44 KHGX 211011 AAA
TAFLBX
TAF AMD
KLBX 211011Z 2110/2206 11005KT P6SM -RA FEW027 BKN040 OVC045
     FM211700 15015G23KT P6SM VCSH SCT030 BKN050
     FM220000 13010KT P6SM BKN050=



000
FTUS44 KHGX 211011 AAA
TAFLBX
TAF AMD
KLBX 211011Z 2110/2206 11005KT P6SM -RA FEW027 BKN040 OVC045
     FM211700 15015G23KT P6SM VCSH SCT030 BKN050
     FM220000 13010KT P6SM BKN050=



000
FTUS44 KHGX 211010 AAC
TAFCXO
TAF AMD
KCXO 211010Z 2110/2206 12006KT P6SM VCSH SCT005 BKN010
      TEMPO 2110/2114 BKN005
     FM211800 14012KT P6SM SCT025 BKN040
     FM220000 13007KT P6SM SCT015 OVC025=



000
FTUS44 KHGX 211010 AAC
TAFCXO
TAF AMD
KCXO 211010Z 2110/2206 12006KT P6SM VCSH SCT005 BKN010
      TEMPO 2110/2114 BKN005
     FM211800 14012KT P6SM SCT025 BKN040
     FM220000 13007KT P6SM SCT015 OVC025=



000
FTUS44 KHGX 211010 AAB
TAFIAH
TAF AMD
KIAH 211010Z 2110/2212 14006KT P6SM VCSH SCT005 BKN040 OVC060
      TEMPO 2110/2114 5SM -RA BR BKN005
     FM211700 14014KT P6SM VCSH SCT025 BKN045
     FM220000 12012KT P6SM SCT015 OVC050
     FM220600 11010KT P6SM SCT015 BKN025=



000
FTUS44 KHGX 210854 AAA
TAFHOU
TAF AMD
KHOU 210854Z 2109/2206 00000KT P6SM VCSH FEW015 BKN030 OVC060
      TEMPO 2109/2110 5SM -RA BR BKN018
     FM211700 13015KT P6SM VCSH SCT025 BKN045
     FM220000 12010KT P6SM SCT015 BKN025=



000
FTUS44 KHGX 210854 AAA
TAFIAH
TAF AMD
KIAH 210854Z 2109/2212 14006KT P6SM VCSH FEW018 BKN040 OVC060
      TEMPO 2109/2110 5SM -RA BR BKN015
     FM211700 14014KT P6SM VCSH SCT025 BKN045
     FM220000 12012KT P6SM SCT015 OVC050
     FM220600 11010KT P6SM SCT015 BKN025=



000
FTUS44 KHGX 210854 AAA
TAFHOU
TAF AMD
KHOU 210854Z 2109/2206 00000KT P6SM VCSH FEW015 BKN030 OVC060
      TEMPO 2109/2110 5SM -RA BR BKN018
     FM211700 13015KT P6SM VCSH SCT025 BKN045
     FM220000 12010KT P6SM SCT015 BKN025=



000
FTUS44 KHGX 210854 AAA
TAFIAH
TAF AMD
KIAH 210854Z 2109/2212 14006KT P6SM VCSH FEW018 BKN040 OVC060
      TEMPO 2109/2110 5SM -RA BR BKN015
     FM211700 14014KT P6SM VCSH SCT025 BKN045
     FM220000 12012KT P6SM SCT015 OVC050
     FM220600 11010KT P6SM SCT015 BKN025=



000
FTUS44 KHGX 210821 AAB
TAFCXO
TAF AMD
KCXO 210821Z 2108/2206 13005KT P6SM VCSH FEW004 BKN045 OVC050
      TEMPO 2108/2110 BKN010
     FM211000 13004KT 6SM BR VCSH SCT007 OVC015
     FM211800 14012KT P6SM SCT025 BKN040
     FM220000 13007KT P6SM SCT015 OVC025=



000
FTUS44 KHGX 210821 AAB
TAFCXO
TAF AMD
KCXO 210821Z 2108/2206 13005KT P6SM VCSH FEW004 BKN045 OVC050
      TEMPO 2108/2110 BKN010
     FM211000 13004KT 6SM BR VCSH SCT007 OVC015
     FM211800 14012KT P6SM SCT025 BKN040
     FM220000 13007KT P6SM SCT015 OVC025=



000
FTUS44 KHGX 210743 AAA
TAFCXO
TAF AMD
KCXO 210743Z 2108/2206 12006KT P6SM VCSH BKN004 OVC040
     FM211000 13004KT 6SM BR VCSH SCT007 OVC015
     FM211800 14012KT P6SM SCT025 BKN040
     FM220000 13007KT P6SM SCT015 OVC025=



000
FTUS44 KHGX 210743 AAA
TAFCXO
TAF AMD
KCXO 210743Z 2108/2206 12006KT P6SM VCSH BKN004 OVC040
     FM211000 13004KT 6SM BR VCSH SCT007 OVC015
     FM211800 14012KT P6SM SCT025 BKN040
     FM220000 13007KT P6SM SCT015 OVC025=



000
FTUS44 KHGX 210552 CCA
TAFGLS
TAF COR
KGLS 210552Z 2106/2206 11012KT P6SM VCSH FEW025 OVC050
     FM211100 13013KT P6SM SCT025 BKN050=



000
FTUS44 KHGX 210552 CCA
TAFGLS
TAF COR
KGLS 210552Z 2106/2206 11012KT P6SM VCSH FEW025 OVC050
     FM211100 13013KT P6SM SCT025 BKN050=



000
FTUS44 KHGX 210550 CCA
TAFUTS
TAF COR
KUTS 210550Z 2106/2206 VRB02KT P6SM VCSH FEW017 OVC035
      TEMPO 2106/2110 -SHRA SCT007 BKN017
     FM211000 16004KT P6SM VCSH SCT007 OVC020
     FM211700 16010KT P6SM VCSH SCT025 BKN035
     FM220000 14005KT P6SM SCT015 OVC025=



000
FTUS44 KHGX 210550 CCA
TAFUTS
TAF COR
KUTS 210550Z 2106/2206 VRB02KT P6SM VCSH FEW017 OVC035
      TEMPO 2106/2110 -SHRA SCT007 BKN017
     FM211000 16004KT P6SM VCSH SCT007 OVC020
     FM211700 16010KT P6SM VCSH SCT025 BKN035
     FM220000 14005KT P6SM SCT015 OVC025=



000
FTUS44 KHGX 210524
TAFCXO
TAF
KCXO 210524Z 2106/2206 12004KT P6SM -SHRA FEW017 OVC045
      TEMPO 2106/2110 BKN017
     FM211000 13004KT 6SM BR VCSH SCT007 OVC015
     FM211800 14012KT P6SM SCT025 BKN040
     FM220000 13007KT P6SM SCT015 OVC025=



000
FTUS44 KHGX 210524
TAFHOU
TAF
KHOU 210524Z 2106/2206 14006KT P6SM VCSH SCT018 BKN040
      TEMPO 2106/2110 5SM -RA BR BKN018
     FM211700 13015KT P6SM VCSH SCT025 BKN045
     FM220000 12010KT P6SM SCT015 BKN025=



000
FTUS44 KHGX 210524
TAFGLS
TAF
KGLS 210524Z 2106/2206 16010KT P6SM VCSH FEW025 OVC050
     FM211100 13013KT P6SM SCT025 BKN050=



000
FTUS44 KHGX 210524
TAFUTS
TAF
KUTS 210524Z 2106/2206 VRB04KT P6SM VCSH FEW045 OVC060
      TEMPO 2106/2110 -SHRA SCT007 BKN025
     FM211000 16004KT P6SM VCSH SCT007 OVC020
     FM211700 16010KT P6SM VCSH SCT025 BKN035
     FM220000 14005KT P6SM SCT015 OVC025=



000
FTUS44 KHGX 210524
TAFSGR
TAF
KSGR 210524Z 2106/2206 13007KT P6SM VCSH FEW013 OVC050
      TEMPO 2106/2110 5SM -RA BR BKN013
     FM211600 14012KT P6SM VCSH SCT030 BKN045
     FM220000 12009KT P6SM SCT015 BKN025=



000
FTUS44 KHGX 210524
TAFCLL
TAF
KCLL 210524Z 2106/2206 14005KT 6SM -SHRA BR BKN007 BKN022 OVC030
     FM211100 14006KT P6SM VCSH BKN007 OVC025
     FM211700 16014KT P6SM VCSH SCT025 BKN035
     FM220000 14012KT P6SM SCT015 OVC025=



000
FTUS44 KHGX 210524
TAFCXO
TAF
KCXO 210524Z 2106/2206 12004KT P6SM -SHRA FEW017 OVC045
      TEMPO 2106/2110 BKN017
     FM211000 13004KT 6SM BR VCSH SCT007 OVC015
     FM211800 14012KT P6SM SCT025 BKN040
     FM220000 13007KT P6SM SCT015 OVC025=



000
FTUS44 KHGX 210524
TAFSGR
TAF
KSGR 210524Z 2106/2206 13007KT P6SM VCSH FEW013 OVC050
      TEMPO 2106/2110 5SM -RA BR BKN013
     FM211600 14012KT P6SM VCSH SCT030 BKN045
     FM220000 12009KT P6SM SCT015 BKN025=



000
FTUS44 KHGX 210524
TAFLBX
TAF
KLBX 210524Z 2106/2206 10004KT P6SM VCSH FEW023 OVC030
      TEMPO 2106/2108 5SM -RA BR BKN020
     FM211700 15015G23KT P6SM VCSH SCT030 BKN050
     FM220000 13010KT P6SM BKN050=



000
FTUS44 KHGX 210524
TAFIAH
TAF
KIAH 210524Z 2106/2212 15006KT P6SM VCSH SCT015 OVC060
      TEMPO 2106/2110 5SM -RA BR BKN015
     FM211700 14014KT P6SM VCSH SCT025 BKN045
     FM220000 12012KT P6SM SCT015 OVC050
     FM220600 11010KT P6SM SCT015 BKN025=



000
FTUS44 KHGX 210524
TAFUTS
TAF
KUTS 210524Z 2106/2206 VRB04KT P6SM VCSH FEW045 OVC060
      TEMPO 2106/2110 -SHRA SCT007 BKN025
     FM211000 16004KT P6SM VCSH SCT007 OVC020
     FM211700 16010KT P6SM VCSH SCT025 BKN035
     FM220000 14005KT P6SM SCT015 OVC025=



000
FTUS44 KHGX 210524
TAFGLS
TAF
KGLS 210524Z 2106/2206 16010KT P6SM VCSH FEW025 OVC050
     FM211100 13013KT P6SM SCT025 BKN050=



000
FTUS44 KHGX 210524
TAFCLL
TAF
KCLL 210524Z 2106/2206 14005KT 6SM -SHRA BR BKN007 BKN022 OVC030
     FM211100 14006KT P6SM VCSH BKN007 OVC025
     FM211700 16014KT P6SM VCSH SCT025 BKN035
     FM220000 14012KT P6SM SCT015 OVC025=



000
FTUS44 KHGX 210524
TAFHOU
TAF
KHOU 210524Z 2106/2206 14006KT P6SM VCSH SCT018 BKN040
      TEMPO 2106/2110 5SM -RA BR BKN018
     FM211700 13015KT P6SM VCSH SCT025 BKN045
     FM220000 12010KT P6SM SCT015 BKN025=



000
FTUS44 KHGX 210524
TAFLBX
TAF
KLBX 210524Z 2106/2206 10004KT P6SM VCSH FEW023 OVC030
      TEMPO 2106/2108 5SM -RA BR BKN020
     FM211700 15015G23KT P6SM VCSH SCT030 BKN050
     FM220000 13010KT P6SM BKN050=



000
FTUS44 KHGX 210524
TAFIAH
TAF
KIAH 210524Z 2106/2212 15006KT P6SM VCSH SCT015 OVC060
      TEMPO 2106/2110 5SM -RA BR BKN015
     FM211700 14014KT P6SM VCSH SCT025 BKN045
     FM220000 12012KT P6SM SCT015 OVC050
     FM220600 11010KT P6SM SCT015 BKN025=



000
FTUS44 KHGX 210429 AAB
TAFHOU
TAF AMD
KHOU 210429Z 2104/2124 16004KT P6SM VCSH FEW018 OVC035
      TEMPO 2104/2106 6SM -RA BR BKN018
     FM210600 13006KT P6SM SCT035 BKN050
     FM211100 12008KT P6SM SCT025 BKN050
     FM211700 14012KT P6SM VCSH SCT030 BKN045=



000
FTUS44 KHGX 210429 AAB
TAFHOU
TAF AMD
KHOU 210429Z 2104/2124 16004KT P6SM VCSH FEW018 OVC035
      TEMPO 2104/2106 6SM -RA BR BKN018
     FM210600 13006KT P6SM SCT035 BKN050
     FM211100 12008KT P6SM SCT025 BKN050
     FM211700 14012KT P6SM VCSH SCT030 BKN045=



000
FTUS44 KHGX 210340 AAB
TAFCLL
TAF AMD
KCLL 210340Z 2104/2124 13009KT P6SM -RA SCT006 BKN040 OVC045
      TEMPO 2104/2106 OVC007
     FM211000 16006KT P6SM OVC015
     FM211500 16012KT P6SM VCSH BKN025 BKN045
     FM212200 15014KT P6SM BKN045=



000
FTUS44 KHGX 210340 AAB
TAFCLL
TAF AMD
KCLL 210340Z 2104/2124 13009KT P6SM -RA SCT006 BKN040 OVC045
      TEMPO 2104/2106 OVC007
     FM211000 16006KT P6SM OVC015
     FM211500 16012KT P6SM VCSH BKN025 BKN045
     FM212200 15014KT P6SM BKN045=



000
FTUS44 KHGX 210340 AAB
TAFCLL
TAF AMD
KCLL 210340Z 2104/2124 13009KT P6SM -RA SCT006 BKN040 OVC045
      TEMPO 2104/2106 OVC007
     FM211000 16006KT P6SM OVC015
     FM211500 16012KT P6SM VCSH BKN025 BKN045
     FM212200 15014KT P6SM BKN045=



000
FTUS44 KHGX 210340 AAB
TAFCLL
TAF AMD
KCLL 210340Z 2104/2124 13009KT P6SM -RA SCT006 BKN040 OVC045
      TEMPO 2104/2106 OVC007
     FM211000 16006KT P6SM OVC015
     FM211500 16012KT P6SM VCSH BKN025 BKN045
     FM212200 15014KT P6SM BKN045=



000
FTUS44 KHGX 210314 AAB
TAFSGR
TAF AMD
KSGR 210314Z 2103/2124 13005KT P6SM VCSH FEW025 BKN060
      TEMPO 2103/2106 6SM -RA BR BKN018
     FM211100 13008KT P6SM SCT025 BKN050
     FM211700 14015KT P6SM VCSH SCT030 BKN045=



000
FTUS44 KHGX 210314 AAB
TAFSGR
TAF AMD
KSGR 210314Z 2103/2124 13005KT P6SM VCSH FEW025 BKN060
      TEMPO 2103/2106 6SM -RA BR BKN018
     FM211100 13008KT P6SM SCT025 BKN050
     FM211700 14015KT P6SM VCSH SCT030 BKN045=



000
FTUS44 KHGX 210305 AAB
TAFLBX
TAF AMD
KLBX 210305Z 2103/2124 12007KT P6SM VCSH SCT025 OVC050
      TEMPO 2103/2105 6SM +RA BR FEW013 BKN030
     FM210500 14009KT 6SM BR VCSH SCT025 BKN050
     FM211700 15015KT P6SM VCSH SCT030 BKN050=



000
FTUS44 KHGX 210305 AAB
TAFLBX
TAF AMD
KLBX 210305Z 2103/2124 12007KT P6SM VCSH SCT025 OVC050
      TEMPO 2103/2105 6SM +RA BR FEW013 BKN030
     FM210500 14009KT 6SM BR VCSH SCT025 BKN050
     FM211700 15015KT P6SM VCSH SCT030 BKN050=



000
FTUS44 KHGX 210304 AAA
TAFHOU
TAF AMD
KHOU 210304Z 2103/2124 16004KT P6SM VCSH OVC035
      TEMPO 2103/2106 6SM -DZ BR
     FM210600 13006KT P6SM SCT035 BKN050
     FM211100 12008KT P6SM SCT025 BKN050
     FM211700 14012KT P6SM VCSH SCT030 BKN045=



000
FTUS44 KHGX 210304 AAA
TAFHOU
TAF AMD
KHOU 210304Z 2103/2124 16004KT P6SM VCSH OVC035
      TEMPO 2103/2106 6SM -DZ BR
     FM210600 13006KT P6SM SCT035 BKN050
     FM211100 12008KT P6SM SCT025 BKN050
     FM211700 14012KT P6SM VCSH SCT030 BKN045=



000
FTUS44 KHGX 210303 AAA
TAFIAH
TAF AMD
KIAH 210303Z 2103/2206 13004KT P6SM VCSH SCT017 OVC045
      TEMPO 2103/2106 6SM -RA BR
     FM210600 13005KT P6SM SCT025 BKN050
     FM211700 14012KT P6SM VCSH SCT030 BKN045
     FM220200 12010KT P6SM VCSH SCT025 BKN050=



000
FTUS44 KHGX 210303 AAA
TAFIAH
TAF AMD
KIAH 210303Z 2103/2206 13004KT P6SM VCSH SCT017 OVC045
      TEMPO 2103/2106 6SM -RA BR
     FM210600 13005KT P6SM SCT025 BKN050
     FM211700 14012KT P6SM VCSH SCT030 BKN045
     FM220200 12010KT P6SM VCSH SCT025 BKN050=



000
FTUS44 KHGX 210301 AAA
TAFCXO
TAF AMD
KCXO 210301Z 2103/2124 13004KT P6SM VCSH OVC050
      TEMPO 2103/2106 5SM -RA BR
     FM210600 15006KT P6SM BKN030
     FM211500 16010KT P6SM VCSH SCT020 BKN035=



000
FTUS44 KHGX 210301 AAA
TAFCXO
TAF AMD
KCXO 210301Z 2103/2124 13004KT P6SM VCSH OVC050
      TEMPO 2103/2106 5SM -RA BR
     FM210600 15006KT P6SM BKN030
     FM211500 16010KT P6SM VCSH SCT020 BKN035=



000
FTUS44 KHGX 210300 AAA
TAFUTS
TAF AMD
KUTS 210300Z 2103/2124 17008KT P6SM VCSH FEW035 OVC060
     FM211000 14010KT P6SM BKN020
     FM211500 16010KT P6SM VCSH BKN025 BKN045
     FM212200 15008KT P6SM BKN045=



000
FTUS44 KHGX 210300 AAA
TAFUTS
TAF AMD
KUTS 210300Z 2103/2124 17008KT P6SM VCSH FEW035 OVC060
     FM211000 14010KT P6SM BKN020
     FM211500 16010KT P6SM VCSH BKN025 BKN045
     FM212200 15008KT P6SM BKN045=



000
FTUS44 KHGX 210159 AAA
TAFSGR
TAF AMD
KSGR 210159Z 2102/2124 10005KT P6SM VCSH SCT070 OVC080
     FM211100 13008KT P6SM SCT025 BKN050
     FM211700 14015KT P6SM VCSH SCT030 BKN045=



000
FTUS44 KHGX 210159 AAA
TAFSGR
TAF AMD
KSGR 210159Z 2102/2124 10005KT P6SM VCSH SCT070 OVC080
     FM211100 13008KT P6SM SCT025 BKN050
     FM211700 14015KT P6SM VCSH SCT030 BKN045=



000
FTUS44 KHGX 210158 AAA
TAFLBX
TAF AMD
KLBX 210158Z 2102/2124 12007KT P6SM VCSH SCT025 OVC050
      TEMPO 2102/2105 6SM -RA BR FEW013 BKN027
     FM210500 14009KT 6SM BR VCSH SCT025 BKN050
     FM211700 15015KT P6SM VCSH SCT030 BKN050=



000
FTUS44 KHGX 210158 AAA
TAFLBX
TAF AMD
KLBX 210158Z 2102/2124 12007KT P6SM VCSH SCT025 OVC050
      TEMPO 2102/2105 6SM -RA BR FEW013 BKN027
     FM210500 14009KT 6SM BR VCSH SCT025 BKN050
     FM211700 15015KT P6SM VCSH SCT030 BKN050=



000
FTUS44 KHGX 210157 AAA
TAFCLL
TAF AMD
KCLL 210157Z 2102/2124 15014KT 6SM -RA BR BKN007 BKN010 OVC045
     FM211000 16006KT P6SM OVC015
     FM211500 16012KT P6SM VCSH BKN025 BKN045
     FM212200 15014KT P6SM BKN045=



000
FTUS44 KHGX 210157 AAA
TAFCLL
TAF AMD
KCLL 210157Z 2102/2124 15014KT 6SM -RA BR BKN007 BKN010 OVC045
     FM211000 16006KT P6SM OVC015
     FM211500 16012KT P6SM VCSH BKN025 BKN045
     FM212200 15014KT P6SM BKN045=



000
FTUS44 KHGX 202329
TAFCLL
TAF
KCLL 202329Z 2100/2124 14009KT P6SM VCSH BKN035 OVC045
     FM210300 14009KT P6SM BKN030
     FM211000 16006KT P6SM OVC020
     FM211500 16012KT P6SM VCSH BKN025 BKN045
     FM212200 15014KT P6SM BKN045=



000
FTUS44 KHGX 202329
TAFLBX
TAF
KLBX 202329Z 2100/2124 12007KT P6SM VCSH OVC050
     FM210300 14009KT P6SM BKN050
     FM211100 14009KT P6SM SCT025 BKN050
     FM211700 15015KT P6SM VCSH SCT030 BKN050=



000
FTUS44 KHGX 202329
TAFSGR
TAF
KSGR 202329Z 2100/2124 15012KT P6SM VCSH OVC050
     FM210400 14007KT P6SM SCT035 BKN050
     FM211100 13008KT P6SM SCT025 BKN050
     FM211700 14015KT P6SM VCSH SCT030 BKN045=



000
FTUS44 KHGX 202329
TAFSGR
TAF
KSGR 202329Z 2100/2124 15012KT P6SM VCSH OVC050
     FM210400 14007KT P6SM SCT035 BKN050
     FM211100 13008KT P6SM SCT025 BKN050
     FM211700 14015KT P6SM VCSH SCT030 BKN045=



000
FTUS44 KHGX 202329
TAFCLL
TAF
KCLL 202329Z 2100/2124 14009KT P6SM VCSH BKN035 OVC045
     FM210300 14009KT P6SM BKN030
     FM211000 16006KT P6SM OVC020
     FM211500 16012KT P6SM VCSH BKN025 BKN045
     FM212200 15014KT P6SM BKN045=



000
FTUS44 KHGX 202329
TAFCXO
TAF
KCXO 202329Z 2100/2124 15007KT P6SM VCSH SCT050 BKN060
     FM210600 15006KT P6SM BKN030
     FM211500 16010KT P6SM VCSH SCT020 BKN035=



000
FTUS44 KHGX 202329
TAFIAH
TAF
KIAH 202329Z 2100/2206 13009KT P6SM VCSH BKN050
     FM210400 13007KT P6SM SCT025 BKN050
     FM211700 14012KT P6SM VCSH SCT030 BKN045
     FM220200 12010KT P6SM VCSH SCT025 BKN050=



000
FTUS44 KHGX 202329
TAFGLS
TAF
KGLS 202329Z 2100/2124 12009KT P6SM VCSH BKN060
     FM210300 13009KT P6SM BKN050
     FM211100 13013KT P6SM SCT025 BKN050=



000
FTUS44 KHGX 202329
TAFLBX
TAF
KLBX 202329Z 2100/2124 12007KT P6SM VCSH OVC050
     FM210300 14009KT P6SM BKN050
     FM211100 14009KT P6SM SCT025 BKN050
     FM211700 15015KT P6SM VCSH SCT030 BKN050=



000
FTUS44 KHGX 202329
TAFGLS
TAF
KGLS 202329Z 2100/2124 12009KT P6SM VCSH BKN060
     FM210300 13009KT P6SM BKN050
     FM211100 13013KT P6SM SCT025 BKN050=



000
FTUS44 KHGX 202329
TAFHOU
TAF
KHOU 202329Z 2100/2124 13007KT P6SM VCSH BKN050
     FM210400 13006KT P6SM SCT035 BKN050
     FM211100 12008KT P6SM SCT025 BKN050
     FM211700 14012KT P6SM VCSH SCT030 BKN045=



000
FTUS44 KHGX 202329
TAFUTS
TAF
KUTS 202329Z 2100/2124 18010KT P6SM VCSH FEW035 BKN070
     FM210300 14008KT P6SM BKN030
     FM211000 14010KT P6SM BKN020
     FM211500 16010KT P6SM VCSH BKN025 BKN045
     FM212200 15008KT P6SM BKN045=



000
FTUS44 KHGX 202329
TAFHOU
TAF
KHOU 202329Z 2100/2124 13007KT P6SM VCSH BKN050
     FM210400 13006KT P6SM SCT035 BKN050
     FM211100 12008KT P6SM SCT025 BKN050
     FM211700 14012KT P6SM VCSH SCT030 BKN045=



000
FTUS44 KHGX 202329
TAFCXO
TAF
KCXO 202329Z 2100/2124 15007KT P6SM VCSH SCT050 BKN060
     FM210600 15006KT P6SM BKN030
     FM211500 16010KT P6SM VCSH SCT020 BKN035=



000
FTUS44 KHGX 202329
TAFUTS
TAF
KUTS 202329Z 2100/2124 18010KT P6SM VCSH FEW035 BKN070
     FM210300 14008KT P6SM BKN030
     FM211000 14010KT P6SM BKN020
     FM211500 16010KT P6SM VCSH BKN025 BKN045
     FM212200 15008KT P6SM BKN045=



000
FTUS44 KHGX 202329
TAFIAH
TAF
KIAH 202329Z 2100/2206 13009KT P6SM VCSH BKN050
     FM210400 13007KT P6SM SCT025 BKN050
     FM211700 14012KT P6SM VCSH SCT030 BKN045
     FM220200 12010KT P6SM VCSH SCT025 BKN050=



000
FTUS44 KHGX 202213 AAB
TAFCLL
TAF AMD
KCLL 202213Z 2022/2118 15012KT P6SM VCSH BKN035 BKN060
      TEMPO 2022/2023 1SM +RA
     FM210300 14009KT P6SM BKN030
     FM211000 14012KT P6SM VCSH BKN020
     FM211500 16012KT P6SM VCSH BKN020 BKN045=



000
FTUS44 KHGX 202158 AAA
TAFCLL
TAF AMD
KCLL 202158Z 2022/2118 15012KT P6SM VCSH BKN035 BKN060
     FM210300 14009KT P6SM BKN030
     FM211000 14012KT P6SM VCSH BKN020
     FM211500 16012KT P6SM VCSH BKN020 BKN045=



000
FTUS44 KHGX 202158 AAA
TAFCLL
TAF AMD
KCLL 202158Z 2022/2118 15012KT P6SM VCSH BKN035 BKN060
     FM210300 14009KT P6SM BKN030
     FM211000 14012KT P6SM VCSH BKN020
     FM211500 16012KT P6SM VCSH BKN020 BKN045=



000
FTUS44 KHGX 202108 AAA
TAFIAH
TAF AMD
KIAH 202108Z 2021/2124 15013KT P6SM VCSH BKN045 BKN080
      TEMPO 2021/2024 -RADZ
     FM210300 16008KT P6SM BKN030
     FM210900 14012KT P6SM VCSH SCT020 BKN030
     FM211700 14012KT P6SM VCSH SCT030 BKN045
     FM212300 14012KT P6SM VCSH SCT025 BKN050=



000
FTUS44 KHGX 202108 AAA
TAFIAH
TAF AMD
KIAH 202108Z 2021/2124 15013KT P6SM VCSH BKN045 BKN080
      TEMPO 2021/2024 -RADZ
     FM210300 16008KT P6SM BKN030
     FM210900 14012KT P6SM VCSH SCT020 BKN030
     FM211700 14012KT P6SM VCSH SCT030 BKN045
     FM212300 14012KT P6SM VCSH SCT025 BKN050=



000
FTUS44 KHGX 202106 AAA
TAFHOU
TAF AMD
KHOU 202106Z 2021/2118 15013G18KT P6SM SCT050 SCT250
     FM210300 16008KT P6SM BKN030
     FM211100 14012KT P6SM VCSH SCT020 BKN030
     FM211500 14012KT P6SM VCSH SCT030 BKN045=



000
FTUS44 KHGX 202106 AAA
TAFHOU
TAF AMD
KHOU 202106Z 2021/2118 15013G18KT P6SM SCT050 SCT250
     FM210300 16008KT P6SM BKN030
     FM211100 14012KT P6SM VCSH SCT020 BKN030
     FM211500 14012KT P6SM VCSH SCT030 BKN045=



000
FTUS44 KHGX 201724
TAFLBX
TAF
KLBX 201724Z 2018/2118 16014G20KT P6SM SCT045 BKN050
     FM210300 15011KT P6SM BKN035
     FM211100 14010KT P6SM VCSH SCT020 BKN030
     FM211600 15012KT P6SM VCSH SCT030 BKN050=



000
FTUS44 KHGX 201724
TAFGLS
TAF
KGLS 201724Z 2018/2118 15013KT P6SM FEW040 SCT050
     FM210300 14013KT P6SM BKN035
     FM211100 13013KT P6SM SCT020 BKN030
     FM211600 14012KT P6SM SCT030 BKN050=



000
FTUS44 KHGX 201724
TAFUTS
TAF
KUTS 201724Z 2018/2118 16009KT P6SM FEW030 SCT050
     FM210300 14008KT P6SM BKN030
     FM211000 14010KT P6SM VCSH BKN020
     FM211500 16010KT P6SM VCSH BKN020 BKN045=



000
FTUS44 KHGX 201724
TAFCLL
TAF
KCLL 201724Z 2018/2118 15012KT P6SM FEW025 SCT035 BKN070
     FM210300 14009KT P6SM BKN030
     FM211000 14012KT P6SM VCSH BKN020
     FM211500 16012KT P6SM VCSH BKN020 BKN045=



000
FTUS44 KHGX 201724
TAFCXO
TAF
KCXO 201724Z 2018/2118 15010KT P6SM BKN035 BKN045 OVC060
     FM210100 15007KT P6SM BKN030
     FM211100 13009KT P6SM VCSH SCT020 BKN030
     FM211600 16010KT P6SM VCSH SCT020 BKN035
      AMD NOT SKED=



000
FTUS44 KHGX 201724
TAFHOU
TAF
KHOU 201724Z 2018/2118 15013G18KT P6SM SCT040 SCT250
     FM210300 16008KT P6SM BKN030
     FM211100 14012KT P6SM VCSH SCT020 BKN030
     FM211500 14012KT P6SM VCSH SCT030 BKN045=



000
FTUS44 KHGX 201724
TAFCLL
TAF
KCLL 201724Z 2018/2118 15012KT P6SM FEW025 SCT035 BKN070
     FM210300 14009KT P6SM BKN030
     FM211000 14012KT P6SM VCSH BKN020
     FM211500 16012KT P6SM VCSH BKN020 BKN045=



000
FTUS44 KHGX 201724
TAFGLS
TAF
KGLS 201724Z 2018/2118 15013KT P6SM FEW040 SCT050
     FM210300 14013KT P6SM BKN035
     FM211100 13013KT P6SM SCT020 BKN030
     FM211600 14012KT P6SM SCT030 BKN050=



000
FTUS44 KHGX 201724
TAFHOU
TAF
KHOU 201724Z 2018/2118 15013G18KT P6SM SCT040 SCT250
     FM210300 16008KT P6SM BKN030
     FM211100 14012KT P6SM VCSH SCT020 BKN030
     FM211500 14012KT P6SM VCSH SCT030 BKN045=



000
FTUS44 KHGX 201724
TAFIAH
TAF
KIAH 201724Z 2018/2124 16013KT P6SM SCT040 BKN080
     FM210300 16008KT P6SM BKN030
     FM210900 14012KT P6SM VCSH SCT020 BKN030
     FM211700 14012KT P6SM VCSH SCT030 BKN045
     FM212300 14012KT P6SM VCSH SCT025 BKN050=



000
FTUS44 KHGX 201724
TAFCXO
TAF
KCXO 201724Z 2018/2118 15010KT P6SM BKN035 BKN045 OVC060
     FM210100 15007KT P6SM BKN030
     FM211100 13009KT P6SM VCSH SCT020 BKN030
     FM211600 16010KT P6SM VCSH SCT020 BKN035
      AMD NOT SKED=



000
FTUS44 KHGX 201724
TAFSGR
TAF
KSGR 201724Z 2018/2118 16013KT P6SM SCT030 BKN040
     FM210300 16008KT P6SM BKN030
     FM211100 14012KT P6SM VCSH SCT020 BKN030
     FM211500 14012KT P6SM VCSH SCT030 BKN045=



000
FTUS44 KHGX 201724
TAFLBX
TAF
KLBX 201724Z 2018/2118 16014G20KT P6SM SCT045 BKN050
     FM210300 15011KT P6SM BKN035
     FM211100 14010KT P6SM VCSH SCT020 BKN030
     FM211600 15012KT P6SM VCSH SCT030 BKN050=



000
FTUS44 KHGX 201724
TAFUTS
TAF
KUTS 201724Z 2018/2118 16009KT P6SM FEW030 SCT050
     FM210300 14008KT P6SM BKN030
     FM211000 14010KT P6SM VCSH BKN020
     FM211500 16010KT P6SM VCSH BKN020 BKN045=



000
FTUS44 KHGX 201724
TAFSGR
TAF
KSGR 201724Z 2018/2118 16013KT P6SM SCT030 BKN040
     FM210300 16008KT P6SM BKN030
     FM211100 14012KT P6SM VCSH SCT020 BKN030
     FM211500 14012KT P6SM VCSH SCT030 BKN045=



000
FTUS44 KHGX 201724
TAFIAH
TAF
KIAH 201724Z 2018/2124 16013KT P6SM SCT040 BKN080
     FM210300 16008KT P6SM BKN030
     FM210900 14012KT P6SM VCSH SCT020 BKN030
     FM211700 14012KT P6SM VCSH SCT030 BKN045
     FM212300 14012KT P6SM VCSH SCT025 BKN050=



000
FTUS44 KHGX 201516 AAA
TAFHOU
TAF AMD
KHOU 201516Z 2015/2112 13006KT P6SM BKN040 BKN250
     FM201700 16010KT P6SM SCT030 BKN040
     FM210300 14010KT P6SM BKN030
     FM211100 14008KT P6SM SCT020 BKN030=



000
FTUS44 KHGX 201516 AAA
TAFHOU
TAF AMD
KHOU 201516Z 2015/2112 13006KT P6SM BKN040 BKN250
     FM201700 16010KT P6SM SCT030 BKN040
     FM210300 14010KT P6SM BKN030
     FM211100 14008KT P6SM SCT020 BKN030=



000
FTUS44 KHGX 201515 AAA
TAFIAH
TAF AMD
KIAH 201515Z 2015/2118 VRB04KT P6SM BKN035 BKN070
     FM201700 15011KT P6SM SCT030 BKN040
     FM210300 14010KT P6SM BKN030
     FM211100 13008KT P6SM SCT020 BKN030
     FM211700 14012KT P6SM VCSH SCT030 BKN045=



000
FTUS44 KHGX 201515 AAA
TAFIAH
TAF AMD
KIAH 201515Z 2015/2118 VRB04KT P6SM BKN035 BKN070
     FM201700 15011KT P6SM SCT030 BKN040
     FM210300 14010KT P6SM BKN030
     FM211100 13008KT P6SM SCT020 BKN030
     FM211700 14012KT P6SM VCSH SCT030 BKN045=



000
FTUS44 KHGX 201336 AAB
TAFLBX
TAF AMD
KLBX 201336Z 2014/2112 00000KT P6SM FEW040 BKN070
     FM201700 16013KT P6SM SCT030 BKN040
     FM210300 15011KT P6SM BKN030
     FM211100 14008KT P6SM SCT020 BKN030=



000
FTUS44 KHGX 201336 AAB
TAFLBX
TAF AMD
KLBX 201336Z 2014/2112 00000KT P6SM FEW040 BKN070
     FM201700 16013KT P6SM SCT030 BKN040
     FM210300 15011KT P6SM BKN030
     FM211100 14008KT P6SM SCT020 BKN030=



000
FTUS44 KHGX 201228 AAA
TAFLBX
TAF AMD
KLBX 201228Z 2012/2112 16004KT P6SM SCT028 SCT040
      TEMPO 2012/2014 1 1/2SM BR
     FM201700 16013KT P6SM SCT030 BKN040
     FM210300 15011KT P6SM BKN030
     FM211100 14008KT P6SM SCT020 BKN030=



000
FTUS44 KHGX 201228 AAA
TAFLBX
TAF AMD
KLBX 201228Z 2012/2112 16004KT P6SM SCT028 SCT040
      TEMPO 2012/2014 1 1/2SM BR
     FM201700 16013KT P6SM SCT030 BKN040
     FM210300 15011KT P6SM BKN030
     FM211100 14008KT P6SM SCT020 BKN030=



000
FTUS44 KHGX 201140
TAFCLL
TAF
KCLL 201140Z 2012/2112 16003KT P6SM SCT035
     FM201700 16010KT P6SM VCSH SCT030 BKN040
     FM210300 15011KT P6SM BKN030
     FM211000 13008KT P6SM VCSH BKN020=



000
FTUS44 KHGX 201140
TAFGLS
TAF
KGLS 201140Z 2012/2112 15006KT P6SM SCT028 SCT040
     FM201700 15012KT P6SM SCT030 BKN040
     FM210300 14013KT P6SM BKN030
     FM211100 14013KT P6SM SCT020 BKN030=



000
FTUS44 KHGX 201140
TAFCXO
TAF
KCXO 201140Z 2012/2112 15004KT P6SM SCT010 SCT035
      TEMPO 2012/2014 5SM BR SCT003
     FM201700 16008KT P6SM SCT030 BKN040
     FM210300 15007KT P6SM BKN030
     FM211100 13008KT P6SM VCSH SCT020 BKN030
      AMD NOT SKED=



000
FTUS44 KHGX 201140
TAFSGR
TAF
KSGR 201140Z 2012/2112 16004KT P6SM SCT028 SCT040
     FM201700 16010KT P6SM SCT030 BKN040
     FM210300 14010KT P6SM BKN030
     FM211100 14008KT P6SM SCT020 BKN030=



000
FTUS44 KHGX 201140
TAFIAH
TAF
KIAH 201140Z 2012/2118 15004KT P6SM SCT028 SCT040
      TEMPO 2012/2014 5SM BR
     FM201700 15011KT P6SM SCT030 BKN040
     FM210300 14010KT P6SM BKN030
     FM211100 13008KT P6SM SCT020 BKN030
     FM211700 14012KT P6SM VCSH SCT030 BKN045=



000
FTUS44 KHGX 201140
TAFHOU
TAF
KHOU 201140Z 2012/2112 16004KT P6SM SCT028 SCT040
     FM201700 16010KT P6SM SCT030 BKN040
     FM210300 14010KT P6SM BKN030
     FM211100 14008KT P6SM SCT020 BKN030=



000
FTUS44 KHGX 201140
TAFLBX
TAF
KLBX 201140Z 2012/2112 16004KT P6SM SCT028 SCT040
     FM201700 16013KT P6SM SCT030 BKN040
     FM210300 15011KT P6SM BKN030
     FM211100 14008KT P6SM SCT020 BKN030=



000
FTUS44 KHGX 201140
TAFUTS
TAF
KUTS 201140Z 2012/2112 16003KT P6SM SCT035
      TEMPO 2012/2014 5SM BR SCT003
     FM201700 18007KT P6SM SCT030 BKN040
     FM210300 16007KT P6SM BKN030
     FM211000 16006KT P6SM VCSH BKN020=



000
FTUS44 KHGX 201140
TAFCLL
TAF
KCLL 201140Z 2012/2112 16003KT P6SM SCT035
     FM201700 16010KT P6SM VCSH SCT030 BKN040
     FM210300 15011KT P6SM BKN030
     FM211000 13008KT P6SM VCSH BKN020=



000
FTUS44 KHGX 201140
TAFLBX
TAF
KLBX 201140Z 2012/2112 16004KT P6SM SCT028 SCT040
     FM201700 16013KT P6SM SCT030 BKN040
     FM210300 15011KT P6SM BKN030
     FM211100 14008KT P6SM SCT020 BKN030=



000
FTUS44 KHGX 201140
TAFUTS
TAF
KUTS 201140Z 2012/2112 16003KT P6SM SCT035
      TEMPO 2012/2014 5SM BR SCT003
     FM201700 18007KT P6SM SCT030 BKN040
     FM210300 16007KT P6SM BKN030
     FM211000 16006KT P6SM VCSH BKN020=



000
FTUS44 KHGX 201140
TAFGLS
TAF
KGLS 201140Z 2012/2112 15006KT P6SM SCT028 SCT040
     FM201700 15012KT P6SM SCT030 BKN040
     FM210300 14013KT P6SM BKN030
     FM211100 14013KT P6SM SCT020 BKN030=



000
FTUS44 KHGX 201140
TAFSGR
TAF
KSGR 201140Z 2012/2112 16004KT P6SM SCT028 SCT040
     FM201700 16010KT P6SM SCT030 BKN040
     FM210300 14010KT P6SM BKN030
     FM211100 14008KT P6SM SCT020 BKN030=



000
FTUS44 KHGX 201140
TAFHOU
TAF
KHOU 201140Z 2012/2112 16004KT P6SM SCT028 SCT040
     FM201700 16010KT P6SM SCT030 BKN040
     FM210300 14010KT P6SM BKN030
     FM211100 14008KT P6SM SCT020 BKN030=



000
FTUS44 KHGX 201140
TAFIAH
TAF
KIAH 201140Z 2012/2118 15004KT P6SM SCT028 SCT040
      TEMPO 2012/2014 5SM BR
     FM201700 15011KT P6SM SCT030 BKN040
     FM210300 14010KT P6SM BKN030
     FM211100 13008KT P6SM SCT020 BKN030
     FM211700 14012KT P6SM VCSH SCT030 BKN045=



000
FTUS44 KHGX 201140
TAFCXO
TAF
KCXO 201140Z 2012/2112 15004KT P6SM SCT010 SCT035
      TEMPO 2012/2014 5SM BR SCT003
     FM201700 16008KT P6SM SCT030 BKN040
     FM210300 15007KT P6SM BKN030
     FM211100 13008KT P6SM VCSH SCT020 BKN030
      AMD NOT SKED=



000
FTUS44 KHGX 200917 AAB
TAFLBX
TAF AMD
KLBX 200917Z 2009/2106 00000KT P6SM BKN070
     FM201400 15006KT P6SM BKN050
     FM201700 15015KT P6SM SCT045
     FM210000 13008KT P6SM OVC050=



000
FTUS44 KHGX 200916 AAB
TAFSGR
TAF AMD
KSGR 200916Z 2009/2106 00000KT 6SM BR FEW035 SCT045 BKN070
     FM201400 15005KT P6SM BKN040
     FM201700 15014KT P6SM SCT045
     FM210200 14007KT P6SM OVC050=



000
FTUS44 KHGX 200916 AAA
TAFHOU
TAF AMD
KHOU 200916Z 2009/2106 17003KT P6SM FEW040
     FM201700 15013KT P6SM SCT045
     FM210000 14006KT P6SM OVC050=



000
FTUS44 KHGX 200916 AAA
TAFHOU
TAF AMD
KHOU 200916Z 2009/2106 17003KT P6SM FEW040
     FM201700 15013KT P6SM SCT045
     FM210000 14006KT P6SM OVC050=



000
FTUS44 KHGX 200916 AAA
TAFIAH
TAF AMD
KIAH 200916Z 2009/2112 00000KT P6SM SCT050
     FM201700 15008KT P6SM BKN050
     FM202000 14014KT P6SM OVC050
     FM210600 13008KT P6SM VCSH SCT015 BKN040=



000
FTUS44 KHGX 200916 AAA
TAFIAH
TAF AMD
KIAH 200916Z 2009/2112 00000KT P6SM SCT050
     FM201700 15008KT P6SM BKN050
     FM202000 14014KT P6SM OVC050
     FM210600 13008KT P6SM VCSH SCT015 BKN040=



000
FTUS44 KHGX 200916 AAB
TAFSGR
TAF AMD
KSGR 200916Z 2009/2106 00000KT 6SM BR FEW035 SCT045 BKN070
     FM201400 15005KT P6SM BKN040
     FM201700 15014KT P6SM SCT045
     FM210200 14007KT P6SM OVC050=



000
FTUS44 KHGX 200647 AAA
TAFLBX
TAF AMD
KLBX 200647Z 2007/2106 00000KT 4SM BR FEW035
     FM201400 15006KT P6SM BKN050
     FM201700 15015KT P6SM SCT045
     FM210000 13008KT P6SM OVC050=



000
FTUS44 KHGX 200647 AAA
TAFLBX
TAF AMD
KLBX 200647Z 2007/2106 00000KT 4SM BR FEW035
     FM201400 15006KT P6SM BKN050
     FM201700 15015KT P6SM SCT045
     FM210000 13008KT P6SM OVC050=



000
FTUS44 KHGX 200645 AAA
TAFSGR
TAF AMD
KSGR 200645Z 2007/2106 17003KT 2SM BR SCT040
      TEMPO 2007/2009 1/2SM FG
     FM201400 15005KT P6SM BKN040
     FM201700 15014KT P6SM SCT045
     FM210200 14007KT P6SM OVC050=



000
FTUS44 KHGX 200645 AAA
TAFSGR
TAF AMD
KSGR 200645Z 2007/2106 17003KT 2SM BR SCT040
      TEMPO 2007/2009 1/2SM FG
     FM201400 15005KT P6SM BKN040
     FM201700 15014KT P6SM SCT045
     FM210200 14007KT P6SM OVC050=



000
FTUS44 KHGX 200520
TAFGLS
TAF
KGLS 200520Z 2006/2106 16008KT P6SM SCT045
     FM201700 13013KT P6SM SCT045
     FM210000 12010KT P6SM OVC050=



000
FTUS44 KHGX 200520
TAFHOU
TAF
KHOU 200520Z 2006/2106 17004KT P6SM SCT040
     FM201700 15013KT P6SM SCT045
     FM210000 14006KT P6SM OVC050=



000
FTUS44 KHGX 200520
TAFLBX
TAF
KLBX 200520Z 2006/2106 VRB02KT P6SM SCT045
     FM201700 15015KT P6SM SCT045
     FM210000 13008KT P6SM OVC050=



000
FTUS44 KHGX 200520
TAFCLL
TAF
KCLL 200520Z 2006/2106 VRB02KT P6SM FEW050
     FM201700 16008KT P6SM BKN045
     FM202100 16012KT P6SM VCSH SCT025 OVC040
     FM210200 14010KT P6SM SCT025 OVC035=



000
FTUS44 KHGX 200520
TAFSGR
TAF
KSGR 200520Z 2006/2106 17003KT P6SM SCT040
     FM201700 15014KT P6SM SCT045
     FM210200 14007KT P6SM OVC050=



000
FTUS44 KHGX 200520
TAFIAH
TAF
KIAH 200520Z 2006/2112 VRB02KT P6SM SCT040
     FM201700 15008KT P6SM BKN050
     FM202000 14014KT P6SM OVC050
     FM210600 13008KT P6SM VCSH SCT015 BKN040=



000
FTUS44 KHGX 200520
TAFUTS
TAF
KUTS 200520Z 2006/2106 16003KT P6SM FEW050
     FM201000 19003KT 6SM BR BKN050
     FM202100 16008KT P6SM VCSH SCT025 OVC040
     FM210200 16006KT P6SM VCSH BKN025=



000
FTUS44 KHGX 200520
TAFCLL
TAF
KCLL 200520Z 2006/2106 VRB02KT P6SM FEW050
     FM201700 16008KT P6SM BKN045
     FM202100 16012KT P6SM VCSH SCT025 OVC040
     FM210200 14010KT P6SM SCT025 OVC035=



000
FTUS44 KHGX 200520
TAFUTS
TAF
KUTS 200520Z 2006/2106 16003KT P6SM FEW050
     FM201000 19003KT 6SM BR BKN050
     FM202100 16008KT P6SM VCSH SCT025 OVC040
     FM210200 16006KT P6SM VCSH BKN025=



000
FTUS44 KHGX 200520
TAFGLS
TAF
KGLS 200520Z 2006/2106 16008KT P6SM SCT045
     FM201700 13013KT P6SM SCT045
     FM210000 12010KT P6SM OVC050=



000
FTUS44 KHGX 200520
TAFCXO
TAF
KCXO 200520Z 2006/2106 00000KT P6SM FEW050
     FM201000 16002KT 5SM BR BKN050
     FM202000 15010KT P6SM SCT025 BKN040
     FM210200 14006KT P6SM BKN025
      AMD NOT SKED=



000
FTUS44 KHGX 200520
TAFHOU
TAF
KHOU 200520Z 2006/2106 17004KT P6SM SCT040
     FM201700 15013KT P6SM SCT045
     FM210000 14006KT P6SM OVC050=



000
FTUS44 KHGX 200520
TAFIAH
TAF
KIAH 200520Z 2006/2112 VRB02KT P6SM SCT040
     FM201700 15008KT P6SM BKN050
     FM202000 14014KT P6SM OVC050
     FM210600 13008KT P6SM VCSH SCT015 BKN040=



000
FTUS44 KHGX 200520
TAFSGR
TAF
KSGR 200520Z 2006/2106 17003KT P6SM SCT040
     FM201700 15014KT P6SM SCT045
     FM210200 14007KT P6SM OVC050=



000
FTUS44 KHGX 200520
TAFCXO
TAF
KCXO 200520Z 2006/2106 00000KT P6SM FEW050
     FM201000 16002KT 5SM BR BKN050
     FM202000 15010KT P6SM SCT025 BKN040
     FM210200 14006KT P6SM BKN025
      AMD NOT SKED=



000
FTUS44 KHGX 200520
TAFLBX
TAF
KLBX 200520Z 2006/2106 VRB02KT P6SM SCT045
     FM201700 15015KT P6SM SCT045
     FM210000 13008KT P6SM OVC050=



000
FTUS44 KHGX 200310 AAA
TAFGLS
TAF AMD
KGLS 200310Z 2003/2024 17006KT P6SM SKC
     FM201000 16007KT P6SM BKN027
     FM201700 13013KT P6SM BKN035=



000
FTUS44 KHGX 200310 AAA
TAFGLS
TAF AMD
KGLS 200310Z 2003/2024 17006KT P6SM SKC
     FM201000 16007KT P6SM BKN027
     FM201700 13013KT P6SM BKN035=



000
FTUS44 KHGX 200309 AAA
TAFLBX
TAF AMD
KLBX 200309Z 2003/2024 00000KT P6SM SKC
     FM200900 16002KT P6SM SCT025 BKN035
     FM201400 16008KT P6SM BKN028
     FM201700 15014KT P6SM BKN035=



000
FTUS44 KHGX 200308 CCA
TAFSGR
TAF COR
KSGR 200308Z 2003/2024 16004KT P6SM SKC
     FM201100 16004KT P6SM SCT025 BKN035
     FM201400 16008KT P6SM BKN028
     FM201700 16010KT P6SM BKN035=



000
FTUS44 KHGX 200308 CCA
TAFSGR
TAF COR
KSGR 200308Z 2003/2024 16004KT P6SM SKC
     FM201100 16004KT P6SM SCT025 BKN035
     FM201400 16008KT P6SM BKN028
     FM201700 16010KT P6SM BKN035=



000
FTUS44 KHGX 200308 AAA
TAFSGR
TAF AMD
KSGR 200308Z 2003/2024 16004KT P6SM SKC
     FM201100 16004KT P6SM SCT025 BKN035
     FM201400 16008KT P6SM VCSH BKN028
     FM201700 16010KT P6SM BKN035=



000
FTUS44 KHGX 200307 AAA
TAFHOU
TAF AMD
KHOU 200307Z 2003/2024 17005KT P6SM SKC
     FM201100 16002KT P6SM SCT025 BKN035
     FM201400 16008KT P6SM BKN028
     FM201700 15010KT P6SM BKN040=



000
FTUS44 KHGX 200307 AAA
TAFHOU
TAF AMD
KHOU 200307Z 2003/2024 17005KT P6SM SKC
     FM201100 16002KT P6SM SCT025 BKN035
     FM201400 16008KT P6SM BKN028
     FM201700 15010KT P6SM BKN040=



000
FTUS44 KHGX 200307 AAA
TAFIAH
TAF AMD
KIAH 200307Z 2003/2106 18005KT P6SM SKC
     FM201100 16002KT P6SM SCT020 BKN035
     FM201500 15011KT P6SM BKN035
     FM201900 15010KT P6SM VCSH BKN035
     FM210300 14009KT P6SM VCSH SCT015 BKN025=



000
FTUS44 KHGX 200307 AAA
TAFIAH
TAF AMD
KIAH 200307Z 2003/2106 18005KT P6SM SKC
     FM201100 16002KT P6SM SCT020 BKN035
     FM201500 15011KT P6SM BKN035
     FM201900 15010KT P6SM VCSH BKN035
     FM210300 14009KT P6SM VCSH SCT015 BKN025=



    US Dept of Commerce
    National Oceanic and Atmospheric Administration
    National Weather Service
    1325 East West Highway
    Silver Spring, MD 20910
    Page Author: NWS Internet Services Team
Disclaimer
Information Quality
Credits
Glossary
Privacy Policy
Freedom of Information Act (FOIA)
About Us
Career Opportunities